<?xml version="1.0" encoding="UTF-8" standalone="no" ?>
<gpx xmlns="http://www.topografix.com/GPX/1/1" xmlns:xsi="http://www.w3.org/2001/XMLSchema-instance" xsi:schemaLocation="http://www.topografix.com/GPX/1/1 http://www.topografix.com/GPX/1/1/gpx.xsd" version="1.1" creator="VisuGPX - https://www.visugpx.com">
  <metadata>
    <name>Rando à Saint Hippolyte</name>
    <desc><![CDATA[Randonnée à Saint Hippolyte ]]></desc>
  </metadata>
  <trk>
    <name><![CDATA[Tracé]]></name>
    <trkseg>
      <trkpt lat="47.31844" lon="6.81079">
        <ele>379</ele>
      </trkpt>
      <trkpt lat="47.32002" lon="6.81061">
        <ele>382</ele>
      </trkpt>
      <trkpt lat="47.32135" lon="6.81087">
        <ele>379</ele>
      </trkpt>
      <trkpt lat="47.32288" lon="6.8112">
        <ele>376</ele>
      </trkpt>
      <trkpt lat="47.32395" lon="6.81043">
        <ele>388</ele>
      </trkpt>
      <trkpt lat="47.32462" lon="6.80991">
        <ele>384</ele>
      </trkpt>
      <trkpt lat="47.32532" lon="6.80883">
        <ele>376</ele>
      </trkpt>
      <trkpt lat="47.32512" lon="6.80785">
        <ele>379</ele>
      </trkpt>
      <trkpt lat="47.32444" lon="6.80679">
        <ele>391</ele>
      </trkpt>
      <trkpt lat="47.32372" lon="6.80603">
        <ele>392</ele>
      </trkpt>
      <trkpt lat="47.32374" lon="6.80603">
        <ele>392</ele>
      </trkpt>
      <trkpt lat="47.32306" lon="6.80609">
        <ele>412</ele>
      </trkpt>
      <trkpt lat="47.32241" lon="6.80572">
        <ele>414</ele>
      </trkpt>
      <trkpt lat="47.32243" lon="6.80572">
        <ele>414</ele>
      </trkpt>
      <trkpt lat="47.32217" lon="6.80572">
        <ele>421</ele>
        <time>2011-11-11T12:20:45Z</time>
      </trkpt>
      <trkpt lat="47.32213" lon="6.80579">
        <ele>423</ele>
        <time>2011-11-11T12:21:11Z</time>
      </trkpt>
      <trkpt lat="47.32213" lon="6.80562">
        <ele>421</ele>
        <time>2011-11-11T12:21:25Z</time>
      </trkpt>
      <trkpt lat="47.32209" lon="6.80562">
        <ele>423</ele>
        <time>2011-11-11T12:21:32Z</time>
      </trkpt>
      <trkpt lat="47.32201" lon="6.80561">
        <ele>425</ele>
        <time>2011-11-11T12:21:45Z</time>
      </trkpt>
      <trkpt lat="47.322" lon="6.80552">
        <ele>424</ele>
        <time>2011-11-11T12:22:04Z</time>
      </trkpt>
      <trkpt lat="47.32188" lon="6.80539">
        <ele>424</ele>
        <time>2011-11-11T12:22:19Z</time>
      </trkpt>
      <trkpt lat="47.32178" lon="6.80521">
        <ele>423</ele>
        <time>2011-11-11T12:22:45Z</time>
      </trkpt>
      <trkpt lat="47.3217" lon="6.80501">
        <ele>424</ele>
        <time>2011-11-11T12:22:59Z</time>
      </trkpt>
      <trkpt lat="47.3217" lon="6.80477">
        <ele>406</ele>
        <time>2011-11-11T12:23:16Z</time>
      </trkpt>
      <trkpt lat="47.3217" lon="6.80437">
        <ele>397</ele>
        <time>2011-11-11T12:23:33Z</time>
      </trkpt>
      <trkpt lat="47.32172" lon="6.80415">
        <ele>395</ele>
        <time>2011-11-11T12:24:05Z</time>
      </trkpt>
      <trkpt lat="47.32183" lon="6.80374">
        <ele>381</ele>
        <time>2011-11-11T12:24:38Z</time>
      </trkpt>
      <trkpt lat="47.32194" lon="6.80344">
        <ele>378</ele>
        <time>2011-11-11T12:24:55Z</time>
      </trkpt>
      <trkpt lat="47.32188" lon="6.80314">
        <ele>376</ele>
        <time>2011-11-11T12:25:20Z</time>
      </trkpt>
      <trkpt lat="47.32207" lon="6.80287">
        <ele>376</ele>
        <time>2011-11-11T12:25:48Z</time>
      </trkpt>
      <trkpt lat="47.32192" lon="6.80227">
        <ele>379</ele>
        <time>2011-11-11T12:26:18Z</time>
      </trkpt>
      <trkpt lat="47.32174" lon="6.80144">
        <ele>380</ele>
        <time>2011-11-11T12:26:58Z</time>
      </trkpt>
      <trkpt lat="47.32178" lon="6.80104">
        <ele>380</ele>
        <time>2011-11-11T12:27:18Z</time>
      </trkpt>
      <trkpt lat="47.32179" lon="6.80104">
        <ele>380</ele>
        <time>2011-11-11T12:27:19Z</time>
      </trkpt>
      <trkpt lat="47.32179" lon="6.80104">
        <ele>380</ele>
        <time>2011-11-11T12:27:21Z</time>
      </trkpt>
      <trkpt lat="47.32178" lon="6.80064">
        <ele>377</ele>
        <time>2011-11-11T12:28:00Z</time>
      </trkpt>
      <trkpt lat="47.32193" lon="6.80013">
        <ele>377</ele>
        <time>2011-11-11T12:28:46Z</time>
      </trkpt>
      <trkpt lat="47.32213" lon="6.79962">
        <ele>376</ele>
        <time>2011-11-11T12:29:08Z</time>
      </trkpt>
      <trkpt lat="47.32214" lon="6.79934">
        <ele>375</ele>
        <time>2011-11-11T12:29:21Z</time>
      </trkpt>
      <trkpt lat="47.32206" lon="6.79919">
        <ele>375</ele>
        <time>2011-11-11T12:29:24Z</time>
      </trkpt>
      <trkpt lat="47.32199" lon="6.79911">
        <ele>373</ele>
        <time>2011-11-11T12:29:26Z</time>
      </trkpt>
      <trkpt lat="47.32192" lon="6.79881">
        <ele>373</ele>
        <time>2011-11-11T12:29:43Z</time>
      </trkpt>
      <trkpt lat="47.32195" lon="6.79849">
        <ele>373</ele>
        <time>2011-11-11T12:29:59Z</time>
      </trkpt>
      <trkpt lat="47.32196" lon="6.79847">
        <ele>373</ele>
        <time>2011-11-11T12:30:02Z</time>
      </trkpt>
      <trkpt lat="47.32165" lon="6.79746">
        <ele>379</ele>
        <time>2011-11-11T12:30:10Z</time>
      </trkpt>
      <trkpt lat="47.3217" lon="6.79721">
        <ele>372</ele>
        <time>2011-11-11T12:30:21Z</time>
      </trkpt>
      <trkpt lat="47.32179" lon="6.79698">
        <ele>371</ele>
        <time>2011-11-11T12:30:45Z</time>
      </trkpt>
      <trkpt lat="47.32197" lon="6.79679">
        <ele>370</ele>
        <time>2011-11-11T12:31:08Z</time>
      </trkpt>
      <trkpt lat="47.32205" lon="6.79648">
        <ele>369</ele>
        <time>2011-11-11T12:31:33Z</time>
      </trkpt>
      <trkpt lat="47.32204" lon="6.79643">
        <ele>370</ele>
        <time>2011-11-11T12:31:41Z</time>
      </trkpt>
      <trkpt lat="47.32208" lon="6.79611">
        <ele>369</ele>
        <time>2011-11-11T12:32:00Z</time>
      </trkpt>
      <trkpt lat="47.32206" lon="6.79605">
        <ele>369</ele>
        <time>2011-11-11T12:32:01Z</time>
      </trkpt>
      <trkpt lat="47.32198" lon="6.79561">
        <ele>371</ele>
        <time>2011-11-11T12:32:23Z</time>
      </trkpt>
      <trkpt lat="47.322" lon="6.79538">
        <ele>371</ele>
        <time>2011-11-11T12:32:40Z</time>
      </trkpt>
      <trkpt lat="47.32204" lon="6.79524">
        <ele>371</ele>
        <time>2011-11-11T12:32:56Z</time>
      </trkpt>
      <trkpt lat="47.32195" lon="6.79507">
        <ele>372</ele>
        <time>2011-11-11T12:33:13Z</time>
      </trkpt>
      <trkpt lat="47.32187" lon="6.79503">
        <ele>373</ele>
        <time>2011-11-11T12:33:34Z</time>
      </trkpt>
      <trkpt lat="47.32192" lon="6.79497">
        <ele>373</ele>
        <time>2011-11-11T12:33:51Z</time>
      </trkpt>
      <trkpt lat="47.32192" lon="6.79497">
        <ele>373</ele>
        <time>2011-11-11T12:33:52Z</time>
      </trkpt>
      <trkpt lat="47.32196" lon="6.79477">
        <ele>373</ele>
        <time>2011-11-11T12:34:11Z</time>
      </trkpt>
      <trkpt lat="47.32197" lon="6.79466">
        <ele>373</ele>
        <time>2011-11-11T12:34:15Z</time>
      </trkpt>
      <trkpt lat="47.32199" lon="6.79457">
        <ele>373</ele>
        <time>2011-11-11T12:34:21Z</time>
      </trkpt>
      <trkpt lat="47.32201" lon="6.79451">
        <ele>373</ele>
        <time>2011-11-11T12:34:25Z</time>
      </trkpt>
      <trkpt lat="47.32209" lon="6.79419">
        <ele>372</ele>
        <time>2011-11-11T12:34:47Z</time>
      </trkpt>
      <trkpt lat="47.32212" lon="6.79381">
        <ele>374</ele>
        <time>2011-11-11T12:35:08Z</time>
      </trkpt>
      <trkpt lat="47.3221" lon="6.79338">
        <ele>375</ele>
        <time>2011-11-11T12:35:33Z</time>
      </trkpt>
      <trkpt lat="47.32209" lon="6.79334">
        <ele>375</ele>
        <time>2011-11-11T12:35:35Z</time>
      </trkpt>
      <trkpt lat="47.32208" lon="6.7933">
        <ele>376</ele>
        <time>2011-11-11T12:35:38Z</time>
      </trkpt>
      <trkpt lat="47.3221" lon="6.79284">
        <ele>376</ele>
        <time>2011-11-11T12:36:01Z</time>
      </trkpt>
      <trkpt lat="47.32212" lon="6.7925">
        <ele>376</ele>
        <time>2011-11-11T12:36:22Z</time>
      </trkpt>
      <trkpt lat="47.32217" lon="6.79204">
        <ele>377</ele>
        <time>2011-11-11T12:36:49Z</time>
      </trkpt>
      <trkpt lat="47.32217" lon="6.79173">
        <ele>377</ele>
        <time>2011-11-11T12:37:09Z</time>
      </trkpt>
      <trkpt lat="47.32218" lon="6.79172">
        <ele>377</ele>
        <time>2011-11-11T12:37:10Z</time>
      </trkpt>
      <trkpt lat="47.32221" lon="6.79141">
        <ele>379</ele>
        <time>2011-11-11T12:37:34Z</time>
      </trkpt>
      <trkpt lat="47.32208" lon="6.79038">
        <ele>386</ele>
        <time>2011-11-11T12:37:58Z</time>
      </trkpt>
      <trkpt lat="47.32206" lon="6.79026">
        <ele>387</ele>
        <time>2011-11-11T12:38:05Z</time>
      </trkpt>
      <trkpt lat="47.32205" lon="6.79022">
        <ele>388</ele>
        <time>2011-11-11T12:38:07Z</time>
      </trkpt>
      <trkpt lat="47.32207" lon="6.79019">
        <ele>387</ele>
        <time>2011-11-11T12:38:14Z</time>
      </trkpt>
      <trkpt lat="47.32222" lon="6.79005">
        <ele>383</ele>
        <time>2011-11-11T12:38:34Z</time>
      </trkpt>
      <trkpt lat="47.32241" lon="6.7897">
        <ele>384</ele>
        <time>2011-11-11T12:39:01Z</time>
      </trkpt>
      <trkpt lat="47.32243" lon="6.78951">
        <ele>385</ele>
        <time>2011-11-11T12:39:10Z</time>
      </trkpt>
      <trkpt lat="47.32253" lon="6.78926">
        <ele>373</ele>
        <time>2011-11-11T12:39:35Z</time>
      </trkpt>
      <trkpt lat="47.32254" lon="6.78885">
        <ele>374</ele>
        <time>2011-11-11T12:39:58Z</time>
      </trkpt>
      <trkpt lat="47.32254" lon="6.78877">
        <ele>374</ele>
        <time>2011-11-11T12:40:00Z</time>
      </trkpt>
      <trkpt lat="47.32252" lon="6.78861">
        <ele>375</ele>
        <time>2011-11-11T12:40:08Z</time>
      </trkpt>
      <trkpt lat="47.32252" lon="6.78858">
        <ele>375</ele>
        <time>2011-11-11T12:40:16Z</time>
      </trkpt>
      <trkpt lat="47.32275" lon="6.78813">
        <ele>380</ele>
        <time>2011-11-11T12:40:51Z</time>
      </trkpt>
      <trkpt lat="47.32286" lon="6.78799">
        <ele>380</ele>
        <time>2011-11-11T12:41:03Z</time>
      </trkpt>
      <trkpt lat="47.32287" lon="6.78798">
        <ele>380</ele>
        <time>2011-11-11T12:41:05Z</time>
      </trkpt>
      <trkpt lat="47.32289" lon="6.78787">
        <ele>380</ele>
        <time>2011-11-11T12:41:09Z</time>
      </trkpt>
      <trkpt lat="47.32299" lon="6.78762">
        <ele>380</ele>
        <time>2011-11-11T12:41:25Z</time>
      </trkpt>
      <trkpt lat="47.32303" lon="6.78738">
        <ele>387</ele>
        <time>2011-11-11T12:41:37Z</time>
      </trkpt>
      <trkpt lat="47.32306" lon="6.78735">
        <ele>386</ele>
        <time>2011-11-11T12:41:40Z</time>
      </trkpt>
      <trkpt lat="47.32306" lon="6.78732">
        <ele>387</ele>
        <time>2011-11-11T12:41:42Z</time>
      </trkpt>
      <trkpt lat="47.32321" lon="6.78688">
        <ele>385</ele>
        <time>2011-11-11T12:42:13Z</time>
      </trkpt>
      <trkpt lat="47.32329" lon="6.78672">
        <ele>378</ele>
        <time>2011-11-11T12:42:24Z</time>
      </trkpt>
      <trkpt lat="47.32337" lon="6.78645">
        <ele>373</ele>
        <time>2011-11-11T12:42:47Z</time>
      </trkpt>
      <trkpt lat="47.32342" lon="6.7864">
        <ele>373</ele>
        <time>2011-11-11T12:42:52Z</time>
      </trkpt>
      <trkpt lat="47.32347" lon="6.78635">
        <ele>373</ele>
        <time>2011-11-11T12:42:58Z</time>
      </trkpt>
      <trkpt lat="47.32367" lon="6.78626">
        <ele>372</ele>
        <time>2011-11-11T12:43:14Z</time>
      </trkpt>
      <trkpt lat="47.32385" lon="6.78625">
        <ele>370</ele>
        <time>2011-11-11T12:43:27Z</time>
      </trkpt>
      <trkpt lat="47.3239" lon="6.78609">
        <ele>370</ele>
        <time>2011-11-11T12:43:38Z</time>
      </trkpt>
      <trkpt lat="47.32397" lon="6.78589">
        <ele>369</ele>
        <time>2011-11-11T12:43:50Z</time>
      </trkpt>
      <trkpt lat="47.32403" lon="6.78572">
        <ele>373</ele>
        <time>2011-11-11T12:43:59Z</time>
      </trkpt>
      <trkpt lat="47.32413" lon="6.78546">
        <ele>375</ele>
        <time>2011-11-11T12:44:18Z</time>
      </trkpt>
      <trkpt lat="47.32427" lon="6.78518">
        <ele>365</ele>
        <time>2011-11-11T12:44:35Z</time>
      </trkpt>
      <trkpt lat="47.3244" lon="6.78488">
        <ele>367</ele>
        <time>2011-11-11T12:44:55Z</time>
      </trkpt>
      <trkpt lat="47.32457" lon="6.78462">
        <ele>366</ele>
        <time>2011-11-11T12:45:18Z</time>
      </trkpt>
      <trkpt lat="47.32468" lon="6.78441">
        <ele>367</ele>
        <time>2011-11-11T12:45:35Z</time>
      </trkpt>
      <trkpt lat="47.32484" lon="6.7841">
        <ele>367</ele>
        <time>2011-11-11T12:46:02Z</time>
      </trkpt>
      <trkpt lat="47.325" lon="6.78384">
        <ele>366</ele>
        <time>2011-11-11T12:46:24Z</time>
      </trkpt>
      <trkpt lat="47.32513" lon="6.78358">
        <ele>366</ele>
        <time>2011-11-11T12:46:45Z</time>
      </trkpt>
      <trkpt lat="47.32526" lon="6.78333">
        <ele>366</ele>
        <time>2011-11-11T12:47:04Z</time>
      </trkpt>
      <trkpt lat="47.32529" lon="6.78325">
        <ele>366</ele>
        <time>2011-11-11T12:47:10Z</time>
      </trkpt>
      <trkpt lat="47.32542" lon="6.78293">
        <ele>366</ele>
        <time>2011-11-11T12:47:32Z</time>
      </trkpt>
      <trkpt lat="47.32553" lon="6.78265">
        <ele>366</ele>
        <time>2011-11-11T12:47:50Z</time>
      </trkpt>
      <trkpt lat="47.32563" lon="6.78241">
        <ele>366</ele>
        <time>2011-11-11T12:48:08Z</time>
      </trkpt>
      <trkpt lat="47.32582" lon="6.78199">
        <ele>368</ele>
        <time>2011-11-11T12:48:36Z</time>
      </trkpt>
      <trkpt lat="47.32598" lon="6.78179">
        <ele>367</ele>
        <time>2011-11-11T12:48:54Z</time>
      </trkpt>
      <trkpt lat="47.32612" lon="6.78149">
        <ele>367</ele>
        <time>2011-11-11T12:49:15Z</time>
      </trkpt>
      <trkpt lat="47.32612" lon="6.78148">
        <ele>367</ele>
        <time>2011-11-11T12:49:16Z</time>
      </trkpt>
      <trkpt lat="47.32626" lon="6.78114">
        <ele>367</ele>
        <time>2011-11-11T12:49:39Z</time>
      </trkpt>
      <trkpt lat="47.32632" lon="6.78088">
        <ele>367</ele>
        <time>2011-11-11T12:50:00Z</time>
      </trkpt>
      <trkpt lat="47.32634" lon="6.78073">
        <ele>367</ele>
        <time>2011-11-11T12:50:58Z</time>
      </trkpt>
      <trkpt lat="47.32648" lon="6.78035">
        <ele>368</ele>
        <time>2011-11-11T12:51:21Z</time>
      </trkpt>
      <trkpt lat="47.32671" lon="6.7801">
        <ele>371</ele>
        <time>2011-11-11T12:51:43Z</time>
      </trkpt>
      <trkpt lat="47.32676" lon="6.77987">
        <ele>371</ele>
        <time>2011-11-11T12:51:58Z</time>
      </trkpt>
      <trkpt lat="47.32671" lon="6.77959">
        <ele>371</ele>
        <time>2011-11-11T12:52:15Z</time>
      </trkpt>
      <trkpt lat="47.32672" lon="6.77932">
        <ele>370</ele>
        <time>2011-11-11T12:52:32Z</time>
      </trkpt>
      <trkpt lat="47.3267" lon="6.77897">
        <ele>369</ele>
        <time>2011-11-11T12:52:50Z</time>
      </trkpt>
      <trkpt lat="47.3267" lon="6.77897">
        <ele>369</ele>
        <time>2011-11-11T12:52:51Z</time>
      </trkpt>
      <trkpt lat="47.32668" lon="6.7789">
        <ele>369</ele>
        <time>2011-11-11T12:52:55Z</time>
      </trkpt>
      <trkpt lat="47.32667" lon="6.77848">
        <ele>369</ele>
        <time>2011-11-11T12:53:20Z</time>
      </trkpt>
      <trkpt lat="47.3267" lon="6.77833">
        <ele>368</ele>
        <time>2011-11-11T12:53:33Z</time>
      </trkpt>
      <trkpt lat="47.32673" lon="6.77805">
        <ele>368</ele>
        <time>2011-11-11T12:53:52Z</time>
      </trkpt>
      <trkpt lat="47.32684" lon="6.77767">
        <ele>368</ele>
        <time>2011-11-11T12:54:16Z</time>
      </trkpt>
      <trkpt lat="47.32684" lon="6.7773">
        <ele>368</ele>
        <time>2011-11-11T12:54:39Z</time>
      </trkpt>
      <trkpt lat="47.32684" lon="6.77728">
        <ele>368</ele>
        <time>2011-11-11T12:54:41Z</time>
      </trkpt>
      <trkpt lat="47.32683" lon="6.7771">
        <ele>368</ele>
        <time>2011-11-11T12:54:54Z</time>
      </trkpt>
      <trkpt lat="47.32681" lon="6.77659">
        <ele>367</ele>
        <time>2011-11-11T12:55:34Z</time>
      </trkpt>
      <trkpt lat="47.32668" lon="6.77616">
        <ele>367</ele>
        <time>2011-11-11T12:56:08Z</time>
      </trkpt>
      <trkpt lat="47.32656" lon="6.77574">
        <ele>367</ele>
        <time>2011-11-11T12:56:35Z</time>
      </trkpt>
      <trkpt lat="47.32652" lon="6.77547">
        <ele>367</ele>
        <time>2011-11-11T12:56:54Z</time>
      </trkpt>
      <trkpt lat="47.32648" lon="6.77498">
        <ele>366</ele>
        <time>2011-11-11T12:57:24Z</time>
      </trkpt>
      <trkpt lat="47.32648" lon="6.77453">
        <ele>366</ele>
        <time>2011-11-11T12:57:57Z</time>
      </trkpt>
      <trkpt lat="47.32647" lon="6.77433">
        <ele>366</ele>
        <time>2011-11-11T12:58:13Z</time>
      </trkpt>
      <trkpt lat="47.32647" lon="6.77407">
        <ele>366</ele>
        <time>2011-11-11T12:58:28Z</time>
      </trkpt>
      <trkpt lat="47.32647" lon="6.77382">
        <ele>367</ele>
        <time>2011-11-11T12:58:45Z</time>
      </trkpt>
      <trkpt lat="47.3265" lon="6.77363">
        <ele>367</ele>
        <time>2011-11-11T12:58:59Z</time>
      </trkpt>
      <trkpt lat="47.32652" lon="6.77344">
        <ele>367</ele>
        <time>2011-11-11T12:59:30Z</time>
      </trkpt>
      <trkpt lat="47.32652" lon="6.77342">
        <ele>367</ele>
        <time>2011-11-11T12:59:31Z</time>
      </trkpt>
      <trkpt lat="47.32651" lon="6.77329">
        <ele>367</ele>
        <time>2011-11-11T12:59:39Z</time>
      </trkpt>
      <trkpt lat="47.32644" lon="6.77302">
        <ele>367</ele>
        <time>2011-11-11T12:59:55Z</time>
      </trkpt>
      <trkpt lat="47.32648" lon="6.77269">
        <ele>367</ele>
        <time>2011-11-11T13:00:17Z</time>
      </trkpt>
      <trkpt lat="47.32647" lon="6.77266">
        <ele>367</ele>
        <time>2011-11-11T13:00:39Z</time>
      </trkpt>
      <trkpt lat="47.32648" lon="6.77266">
        <ele>367</ele>
        <time>2011-11-11T13:01:59Z</time>
      </trkpt>
      <trkpt lat="47.32651" lon="6.77257">
        <ele>367</ele>
        <time>2011-11-11T13:02:49Z</time>
      </trkpt>
      <trkpt lat="47.32651" lon="6.77228">
        <ele>367</ele>
        <time>2011-11-11T13:03:08Z</time>
      </trkpt>
      <trkpt lat="47.32654" lon="6.77217">
        <ele>367</ele>
        <time>2011-11-11T13:03:14Z</time>
      </trkpt>
      <trkpt lat="47.32659" lon="6.77198">
        <ele>367</ele>
        <time>2011-11-11T13:03:23Z</time>
      </trkpt>
      <trkpt lat="47.32663" lon="6.77161">
        <ele>366</ele>
        <time>2011-11-11T13:03:41Z</time>
      </trkpt>
      <trkpt lat="47.32671" lon="6.77145">
        <ele>365</ele>
        <time>2011-11-11T13:03:58Z</time>
      </trkpt>
      <trkpt lat="47.32675" lon="6.77136">
        <ele>365</ele>
        <time>2011-11-11T13:04:21Z</time>
      </trkpt>
      <trkpt lat="47.32687" lon="6.77143">
        <ele>365</ele>
        <time>2011-11-11T13:04:37Z</time>
      </trkpt>
      <trkpt lat="47.32706" lon="6.77146">
        <ele>365</ele>
        <time>2011-11-11T13:04:52Z</time>
      </trkpt>
      <trkpt lat="47.32726" lon="6.77154">
        <ele>365</ele>
        <time>2011-11-11T13:05:10Z</time>
      </trkpt>
      <trkpt lat="47.32743" lon="6.77162">
        <ele>365</ele>
        <time>2011-11-11T13:05:28Z</time>
      </trkpt>
      <trkpt lat="47.32744" lon="6.77161">
        <ele>365</ele>
        <time>2011-11-11T13:05:29Z</time>
      </trkpt>
      <trkpt lat="47.32756" lon="6.77141">
        <ele>375</ele>
        <time>2011-11-11T13:05:47Z</time>
      </trkpt>
      <trkpt lat="47.32756" lon="6.77133">
        <ele>375</ele>
        <time>2011-11-11T13:05:51Z</time>
      </trkpt>
      <trkpt lat="47.32773" lon="6.77086">
        <ele>375</ele>
        <time>2011-11-11T13:06:14Z</time>
      </trkpt>
      <trkpt lat="47.3278" lon="6.77073">
        <ele>374</ele>
        <time>2011-11-11T13:06:30Z</time>
      </trkpt>
      <trkpt lat="47.3279" lon="6.77059">
        <ele>376</ele>
        <time>2011-11-11T13:06:45Z</time>
      </trkpt>
      <trkpt lat="47.32792" lon="6.77038">
        <ele>375</ele>
        <time>2011-11-11T13:07:00Z</time>
      </trkpt>
      <trkpt lat="47.32795" lon="6.77034">
        <ele>376</ele>
        <time>2011-11-11T13:07:02Z</time>
      </trkpt>
      <trkpt lat="47.32797" lon="6.77016">
        <ele>376</ele>
        <time>2011-11-11T13:07:12Z</time>
      </trkpt>
      <trkpt lat="47.32799" lon="6.77009">
        <ele>376</ele>
        <time>2011-11-11T13:07:15Z</time>
      </trkpt>
      <trkpt lat="47.328" lon="6.77004">
        <ele>376</ele>
        <time>2011-11-11T13:07:17Z</time>
      </trkpt>
      <trkpt lat="47.32803" lon="6.77001">
        <ele>377</ele>
        <time>2011-11-11T13:07:20Z</time>
      </trkpt>
      <trkpt lat="47.328" lon="6.7698">
        <ele>375</ele>
        <time>2011-11-11T13:07:33Z</time>
      </trkpt>
      <trkpt lat="47.32801" lon="6.76954">
        <ele>375</ele>
        <time>2011-11-11T13:07:47Z</time>
      </trkpt>
      <trkpt lat="47.32806" lon="6.76936">
        <ele>377</ele>
        <time>2011-11-11T13:07:57Z</time>
      </trkpt>
      <trkpt lat="47.32806" lon="6.76929">
        <ele>377</ele>
        <time>2011-11-11T13:08:01Z</time>
      </trkpt>
      <trkpt lat="47.32809" lon="6.76918">
        <ele>378</ele>
        <time>2011-11-11T13:08:06Z</time>
      </trkpt>
      <trkpt lat="47.32812" lon="6.76905">
        <ele>379</ele>
        <time>2011-11-11T13:08:22Z</time>
      </trkpt>
      <trkpt lat="47.32832" lon="6.76916">
        <ele>386</ele>
        <time>2011-11-11T13:08:43Z</time>
      </trkpt>
      <trkpt lat="47.32837" lon="6.76935">
        <ele>397</ele>
        <time>2011-11-11T13:08:59Z</time>
      </trkpt>
      <trkpt lat="47.32832" lon="6.76953">
        <ele>379</ele>
        <time>2011-11-11T13:09:13Z</time>
      </trkpt>
      <trkpt lat="47.32838" lon="6.7697">
        <ele>398</ele>
        <time>2011-11-11T13:09:31Z</time>
      </trkpt>
      <trkpt lat="47.32839" lon="6.76977">
        <ele>397</ele>
        <time>2011-11-11T13:09:52Z</time>
      </trkpt>
      <trkpt lat="47.32848" lon="6.7699">
        <ele>396</ele>
        <time>2011-11-11T13:10:10Z</time>
      </trkpt>
      <trkpt lat="47.32845" lon="6.77023">
        <ele>399</ele>
        <time>2011-11-11T13:10:31Z</time>
      </trkpt>
      <trkpt lat="47.32849" lon="6.77042">
        <ele>402</ele>
        <time>2011-11-11T13:10:45Z</time>
      </trkpt>
      <trkpt lat="47.32855" lon="6.77063">
        <ele>403</ele>
        <time>2011-11-11T13:11:02Z</time>
      </trkpt>
      <trkpt lat="47.3286" lon="6.7708">
        <ele>404</ele>
        <time>2011-11-11T13:11:19Z</time>
      </trkpt>
      <trkpt lat="47.32867" lon="6.77085">
        <ele>414</ele>
        <time>2011-11-11T13:11:37Z</time>
      </trkpt>
      <trkpt lat="47.32882" lon="6.77083">
        <ele>412</ele>
        <time>2011-11-11T13:11:56Z</time>
      </trkpt>
      <trkpt lat="47.3289" lon="6.77065">
        <ele>413</ele>
        <time>2011-11-11T13:12:17Z</time>
      </trkpt>
      <trkpt lat="47.32906" lon="6.77048">
        <ele>415</ele>
        <time>2011-11-11T13:12:41Z</time>
      </trkpt>
      <trkpt lat="47.32919" lon="6.77048">
        <ele>442</ele>
        <time>2011-11-11T13:13:04Z</time>
      </trkpt>
      <trkpt lat="47.32927" lon="6.77049">
        <ele>443</ele>
        <time>2011-11-11T13:13:28Z</time>
      </trkpt>
      <trkpt lat="47.32955" lon="6.77057">
        <ele>449</ele>
        <time>2011-11-11T13:13:48Z</time>
      </trkpt>
      <trkpt lat="47.32967" lon="6.77058">
        <ele>453</ele>
        <time>2011-11-11T13:14:08Z</time>
      </trkpt>
      <trkpt lat="47.3297" lon="6.7705">
        <ele>453</ele>
        <time>2011-11-11T13:14:28Z</time>
      </trkpt>
      <trkpt lat="47.3298" lon="6.77042">
        <ele>455</ele>
        <time>2011-11-11T13:14:48Z</time>
      </trkpt>
      <trkpt lat="47.32985" lon="6.77035">
        <ele>455</ele>
        <time>2011-11-11T13:15:07Z</time>
      </trkpt>
      <trkpt lat="47.32994" lon="6.77036">
        <ele>457</ele>
        <time>2011-11-11T13:15:28Z</time>
      </trkpt>
      <trkpt lat="47.32979" lon="6.77055">
        <ele>456</ele>
        <time>2011-11-11T13:15:53Z</time>
      </trkpt>
      <trkpt lat="47.32967" lon="6.77076">
        <ele>454</ele>
        <time>2011-11-11T13:16:10Z</time>
      </trkpt>
      <trkpt lat="47.32968" lon="6.77071">
        <ele>454</ele>
        <time>2011-11-11T13:16:26Z</time>
      </trkpt>
      <trkpt lat="47.3297" lon="6.77062">
        <ele>454</ele>
        <time>2011-11-11T13:16:51Z</time>
      </trkpt>
      <trkpt lat="47.3297" lon="6.77061">
        <ele>454</ele>
        <time>2011-11-11T13:16:53Z</time>
      </trkpt>
      <trkpt lat="47.3297" lon="6.7706">
        <ele>454</ele>
        <time>2011-11-11T13:16:54Z</time>
      </trkpt>
      <trkpt lat="47.32991" lon="6.77034">
        <ele>456</ele>
        <time>2011-11-11T13:17:18Z</time>
      </trkpt>
      <trkpt lat="47.3299" lon="6.77031">
        <ele>456</ele>
        <time>2011-11-11T13:17:36Z</time>
      </trkpt>
      <trkpt lat="47.33005" lon="6.77026">
        <ele>480</ele>
        <time>2011-11-11T13:17:55Z</time>
      </trkpt>
      <trkpt lat="47.3301" lon="6.7703">
        <ele>482</ele>
        <time>2011-11-11T13:18:16Z</time>
      </trkpt>
      <trkpt lat="47.3301" lon="6.77038">
        <ele>483</ele>
        <time>2011-11-11T13:18:32Z</time>
      </trkpt>
      <trkpt lat="47.33018" lon="6.77029">
        <ele>483</ele>
        <time>2011-11-11T13:18:46Z</time>
      </trkpt>
      <trkpt lat="47.3301" lon="6.77042">
        <ele>483</ele>
        <time>2011-11-11T13:19:19Z</time>
      </trkpt>
      <trkpt lat="47.33028" lon="6.77031">
        <ele>485</ele>
        <time>2011-11-11T13:19:39Z</time>
      </trkpt>
      <trkpt lat="47.33032" lon="6.77026">
        <ele>486</ele>
        <time>2011-11-11T13:20:00Z</time>
      </trkpt>
      <trkpt lat="47.33038" lon="6.77028">
        <ele>488</ele>
        <time>2011-11-11T13:20:18Z</time>
      </trkpt>
      <trkpt lat="47.33045" lon="6.77029">
        <ele>489</ele>
        <time>2011-11-11T13:20:34Z</time>
      </trkpt>
      <trkpt lat="47.33046" lon="6.77031">
        <ele>490</ele>
        <time>2011-11-11T13:20:59Z</time>
      </trkpt>
      <trkpt lat="47.33063" lon="6.77034">
        <ele>493</ele>
        <time>2011-11-11T13:21:22Z</time>
      </trkpt>
      <trkpt lat="47.33066" lon="6.7703">
        <ele>494</ele>
        <time>2011-11-11T13:21:43Z</time>
      </trkpt>
      <trkpt lat="47.33071" lon="6.77028">
        <ele>494</ele>
        <time>2011-11-11T13:22:03Z</time>
      </trkpt>
      <trkpt lat="47.33076" lon="6.7702">
        <ele>496</ele>
        <time>2011-11-11T13:22:18Z</time>
      </trkpt>
      <trkpt lat="47.33075" lon="6.77017">
        <ele>496</ele>
        <time>2011-11-11T13:22:30Z</time>
      </trkpt>
      <trkpt lat="47.33075" lon="6.77027">
        <ele>495</ele>
        <time>2011-11-11T13:22:48Z</time>
      </trkpt>
      <trkpt lat="47.33072" lon="6.77017">
        <ele>495</ele>
        <time>2011-11-11T13:23:21Z</time>
      </trkpt>
      <trkpt lat="47.33076" lon="6.76997">
        <ele>499</ele>
        <time>2011-11-11T13:23:36Z</time>
      </trkpt>
      <trkpt lat="47.33087" lon="6.76992">
        <ele>508</ele>
        <time>2011-11-11T13:23:52Z</time>
      </trkpt>
      <trkpt lat="47.33084" lon="6.76979">
        <ele>513</ele>
        <time>2011-11-11T13:24:12Z</time>
      </trkpt>
      <trkpt lat="47.3309" lon="6.76966">
        <ele>517</ele>
        <time>2011-11-11T13:24:29Z</time>
      </trkpt>
      <trkpt lat="47.33085" lon="6.76945">
        <ele>519</ele>
        <time>2011-11-11T13:24:47Z</time>
      </trkpt>
      <trkpt lat="47.33086" lon="6.76928">
        <ele>519</ele>
        <time>2011-11-11T13:25:06Z</time>
      </trkpt>
      <trkpt lat="47.33082" lon="6.76912">
        <ele>514</ele>
        <time>2011-11-11T13:25:25Z</time>
      </trkpt>
      <trkpt lat="47.33078" lon="6.76902">
        <ele>511</ele>
        <time>2011-11-11T13:25:41Z</time>
      </trkpt>
      <trkpt lat="47.33073" lon="6.76895">
        <ele>509</ele>
        <time>2011-11-11T13:25:55Z</time>
      </trkpt>
      <trkpt lat="47.33071" lon="6.7689">
        <ele>508</ele>
        <time>2011-11-11T13:26:08Z</time>
      </trkpt>
      <trkpt lat="47.33061" lon="6.76886">
        <ele>506</ele>
        <time>2011-11-11T13:26:25Z</time>
      </trkpt>
      <trkpt lat="47.33057" lon="6.76883">
        <ele>505</ele>
        <time>2011-11-11T13:26:40Z</time>
      </trkpt>
      <trkpt lat="47.33047" lon="6.76874">
        <ele>504</ele>
        <time>2011-11-11T13:26:56Z</time>
      </trkpt>
      <trkpt lat="47.33036" lon="6.76869">
        <ele>501</ele>
        <time>2011-11-11T13:27:14Z</time>
      </trkpt>
      <trkpt lat="47.33027" lon="6.7686">
        <ele>499</ele>
        <time>2011-11-11T13:27:29Z</time>
      </trkpt>
      <trkpt lat="47.33024" lon="6.76844">
        <ele>497</ele>
        <time>2011-11-11T13:27:46Z</time>
      </trkpt>
      <trkpt lat="47.33023" lon="6.76841">
        <ele>497</ele>
        <time>2011-11-11T13:27:49Z</time>
      </trkpt>
      <trkpt lat="47.33031" lon="6.76836">
        <ele>500</ele>
        <time>2011-11-11T13:28:03Z</time>
      </trkpt>
      <trkpt lat="47.3304" lon="6.76824">
        <ele>498</ele>
        <time>2011-11-11T13:28:19Z</time>
      </trkpt>
      <trkpt lat="47.33051" lon="6.76811">
        <ele>500</ele>
        <time>2011-11-11T13:28:38Z</time>
      </trkpt>
      <trkpt lat="47.33055" lon="6.76796">
        <ele>499</ele>
        <time>2011-11-11T13:28:57Z</time>
      </trkpt>
      <trkpt lat="47.33066" lon="6.76786">
        <ele>501</ele>
        <time>2011-11-11T13:29:14Z</time>
      </trkpt>
      <trkpt lat="47.33076" lon="6.76788">
        <ele>502</ele>
        <time>2011-11-11T13:29:29Z</time>
      </trkpt>
      <trkpt lat="47.33096" lon="6.76787">
        <ele>527</ele>
        <time>2011-11-11T13:29:44Z</time>
      </trkpt>
      <trkpt lat="47.33091" lon="6.76773">
        <ele>524</ele>
        <time>2011-11-11T13:30:03Z</time>
      </trkpt>
      <trkpt lat="47.33093" lon="6.76763">
        <ele>521</ele>
        <time>2011-11-11T13:30:17Z</time>
      </trkpt>
      <trkpt lat="47.33091" lon="6.76753">
        <ele>516</ele>
        <time>2011-11-11T13:30:34Z</time>
      </trkpt>
      <trkpt lat="47.33095" lon="6.76746">
        <ele>513</ele>
        <time>2011-11-11T13:30:52Z</time>
      </trkpt>
      <trkpt lat="47.33104" lon="6.76747">
        <ele>515</ele>
        <time>2011-11-11T13:31:10Z</time>
      </trkpt>
      <trkpt lat="47.33107" lon="6.76743">
        <ele>516</ele>
        <time>2011-11-11T13:31:32Z</time>
      </trkpt>
      <trkpt lat="47.33115" lon="6.76742">
        <ele>518</ele>
        <time>2011-11-11T13:31:49Z</time>
      </trkpt>
      <trkpt lat="47.33122" lon="6.76741">
        <ele>520</ele>
        <time>2011-11-11T13:32:08Z</time>
      </trkpt>
      <trkpt lat="47.33128" lon="6.76742">
        <ele>522</ele>
        <time>2011-11-11T13:32:20Z</time>
      </trkpt>
      <trkpt lat="47.33136" lon="6.76741">
        <ele>525</ele>
        <time>2011-11-11T13:32:38Z</time>
      </trkpt>
      <trkpt lat="47.33145" lon="6.7674">
        <ele>529</ele>
        <time>2011-11-11T13:32:58Z</time>
      </trkpt>
      <trkpt lat="47.33147" lon="6.76741">
        <ele>530</ele>
        <time>2011-11-11T13:33:15Z</time>
      </trkpt>
      <trkpt lat="47.33155" lon="6.76734">
        <ele>532</ele>
        <time>2011-11-11T13:33:35Z</time>
      </trkpt>
      <trkpt lat="47.33161" lon="6.76724">
        <ele>529</ele>
        <time>2011-11-11T13:33:55Z</time>
      </trkpt>
      <trkpt lat="47.33166" lon="6.76713">
        <ele>526</ele>
        <time>2011-11-11T13:34:11Z</time>
      </trkpt>
      <trkpt lat="47.3317" lon="6.76697">
        <ele>539</ele>
        <time>2011-11-11T13:34:26Z</time>
      </trkpt>
      <trkpt lat="47.33179" lon="6.76691">
        <ele>539</ele>
        <time>2011-11-11T13:34:39Z</time>
      </trkpt>
      <trkpt lat="47.33189" lon="6.76676">
        <ele>538</ele>
        <time>2011-11-11T13:34:57Z</time>
      </trkpt>
      <trkpt lat="47.33191" lon="6.76668">
        <ele>538</ele>
        <time>2011-11-11T13:35:04Z</time>
      </trkpt>
      <trkpt lat="47.33197" lon="6.7666">
        <ele>526</ele>
        <time>2011-11-11T13:35:20Z</time>
      </trkpt>
      <trkpt lat="47.33205" lon="6.76663">
        <ele>527</ele>
        <time>2011-11-11T13:35:38Z</time>
      </trkpt>
      <trkpt lat="47.33208" lon="6.76667">
        <ele>541</ele>
        <time>2011-11-11T13:35:51Z</time>
      </trkpt>
      <trkpt lat="47.33205" lon="6.7667">
        <ele>541</ele>
        <time>2011-11-11T13:36:06Z</time>
      </trkpt>
      <trkpt lat="47.33213" lon="6.76685">
        <ele>542</ele>
        <time>2011-11-11T13:36:40Z</time>
      </trkpt>
      <trkpt lat="47.33221" lon="6.76695">
        <ele>544</ele>
        <time>2011-11-11T13:36:54Z</time>
      </trkpt>
      <trkpt lat="47.3323" lon="6.7671">
        <ele>545</ele>
        <time>2011-11-11T13:37:05Z</time>
      </trkpt>
      <trkpt lat="47.33243" lon="6.76727">
        <ele>547</ele>
        <time>2011-11-11T13:37:21Z</time>
      </trkpt>
      <trkpt lat="47.33239" lon="6.76738">
        <ele>548</ele>
        <time>2011-11-11T13:37:39Z</time>
      </trkpt>
      <trkpt lat="47.33244" lon="6.76748">
        <ele>549</ele>
        <time>2011-11-11T13:38:20Z</time>
      </trkpt>
      <trkpt lat="47.33246" lon="6.7675">
        <ele>551</ele>
        <time>2011-11-11T13:38:47Z</time>
      </trkpt>
      <trkpt lat="47.33246" lon="6.76749">
        <ele>550</ele>
        <time>2011-11-11T13:38:59Z</time>
      </trkpt>
      <trkpt lat="47.33244" lon="6.76739">
        <ele>548</ele>
        <time>2011-11-11T13:39:05Z</time>
      </trkpt>
      <trkpt lat="47.33242" lon="6.7674">
        <ele>548</ele>
        <time>2011-11-11T13:39:22Z</time>
      </trkpt>
      <trkpt lat="47.33243" lon="6.76742">
        <ele>549</ele>
        <time>2011-11-11T13:39:23Z</time>
      </trkpt>
      <trkpt lat="47.33242" lon="6.76756">
        <ele>551</ele>
        <time>2011-11-11T13:39:42Z</time>
      </trkpt>
      <trkpt lat="47.33246" lon="6.76754">
        <ele>551</ele>
        <time>2011-11-11T13:40:28Z</time>
      </trkpt>
      <trkpt lat="47.33242" lon="6.76752">
        <ele>551</ele>
        <time>2011-11-11T13:42:07Z</time>
      </trkpt>
      <trkpt lat="47.33242" lon="6.76752">
        <ele>551</ele>
        <time>2011-11-11T13:42:35Z</time>
      </trkpt>
      <trkpt lat="47.33246" lon="6.76767">
        <ele>551</ele>
        <time>2011-11-11T13:42:46Z</time>
      </trkpt>
      <trkpt lat="47.33244" lon="6.76799">
        <ele>551</ele>
        <time>2011-11-11T13:43:04Z</time>
      </trkpt>
      <trkpt lat="47.33245" lon="6.76802">
        <ele>551</ele>
        <time>2011-11-11T13:43:06Z</time>
      </trkpt>
      <trkpt lat="47.33249" lon="6.76803">
        <ele>551</ele>
        <time>2011-11-11T13:43:10Z</time>
      </trkpt>
      <trkpt lat="47.33251" lon="6.76798">
        <ele>549</ele>
        <time>2011-11-11T13:43:13Z</time>
      </trkpt>
      <trkpt lat="47.33258" lon="6.76798">
        <ele>549</ele>
        <time>2011-11-11T13:43:20Z</time>
      </trkpt>
      <trkpt lat="47.33259" lon="6.76801">
        <ele>549</ele>
        <time>2011-11-11T13:43:22Z</time>
      </trkpt>
      <trkpt lat="47.3328" lon="6.76825">
        <ele>549</ele>
        <time>2011-11-11T13:43:44Z</time>
      </trkpt>
      <trkpt lat="47.3329" lon="6.76836">
        <ele>551</ele>
        <time>2011-11-11T13:43:53Z</time>
      </trkpt>
      <trkpt lat="47.33295" lon="6.76841">
        <ele>551</ele>
        <time>2011-11-11T13:43:59Z</time>
      </trkpt>
      <trkpt lat="47.33297" lon="6.76845">
        <ele>551</ele>
        <time>2011-11-11T13:44:18Z</time>
      </trkpt>
      <trkpt lat="47.33294" lon="6.76849">
        <ele>551</ele>
        <time>2011-11-11T13:44:29Z</time>
      </trkpt>
      <trkpt lat="47.33276" lon="6.76879">
        <ele>552</ele>
        <time>2011-11-11T13:44:50Z</time>
      </trkpt>
      <trkpt lat="47.33271" lon="6.76932">
        <ele>555</ele>
        <time>2011-11-11T13:45:15Z</time>
      </trkpt>
      <trkpt lat="47.33268" lon="6.76991">
        <ele>554</ele>
        <time>2011-11-11T13:45:44Z</time>
      </trkpt>
      <trkpt lat="47.33262" lon="6.7703">
        <ele>562</ele>
        <time>2011-11-11T13:46:08Z</time>
      </trkpt>
      <trkpt lat="47.33256" lon="6.77066">
        <ele>561</ele>
        <time>2011-11-11T13:46:29Z</time>
      </trkpt>
      <trkpt lat="47.33244" lon="6.77094">
        <ele>552</ele>
        <time>2011-11-11T13:46:46Z</time>
      </trkpt>
      <trkpt lat="47.3323" lon="6.77128">
        <ele>552</ele>
        <time>2011-11-11T13:47:09Z</time>
      </trkpt>
      <trkpt lat="47.33218" lon="6.7717">
        <ele>562</ele>
        <time>2011-11-11T13:47:37Z</time>
      </trkpt>
      <trkpt lat="47.33211" lon="6.77187">
        <ele>562</ele>
        <time>2011-11-11T13:47:52Z</time>
      </trkpt>
      <trkpt lat="47.33209" lon="6.77192">
        <ele>562</ele>
        <time>2011-11-11T13:47:56Z</time>
      </trkpt>
      <trkpt lat="47.3319" lon="6.77208">
        <ele>561</ele>
        <time>2011-11-11T13:48:17Z</time>
      </trkpt>
      <trkpt lat="47.33167" lon="6.77211">
        <ele>560</ele>
        <time>2011-11-11T13:48:38Z</time>
      </trkpt>
      <trkpt lat="47.33139" lon="6.77219">
        <ele>551</ele>
        <time>2011-11-11T13:49:03Z</time>
      </trkpt>
      <trkpt lat="47.33131" lon="6.77223">
        <ele>551</ele>
        <time>2011-11-11T13:49:10Z</time>
      </trkpt>
      <trkpt lat="47.33117" lon="6.77238">
        <ele>551</ele>
        <time>2011-11-11T13:49:27Z</time>
      </trkpt>
      <trkpt lat="47.3311" lon="6.77249">
        <ele>551</ele>
        <time>2011-11-11T13:49:36Z</time>
      </trkpt>
      <trkpt lat="47.331" lon="6.77266">
        <ele>556</ele>
        <time>2011-11-11T13:49:52Z</time>
      </trkpt>
      <trkpt lat="47.33087" lon="6.77298">
        <ele>558</ele>
        <time>2011-11-11T13:50:16Z</time>
      </trkpt>
      <trkpt lat="47.33084" lon="6.77303">
        <ele>559</ele>
        <time>2011-11-11T13:50:20Z</time>
      </trkpt>
      <trkpt lat="47.33076" lon="6.77327">
        <ele>554</ele>
        <time>2011-11-11T13:50:36Z</time>
      </trkpt>
      <trkpt lat="47.33064" lon="6.77359">
        <ele>555</ele>
        <time>2011-11-11T13:50:57Z</time>
      </trkpt>
      <trkpt lat="47.33051" lon="6.77403">
        <ele>555</ele>
        <time>2011-11-11T13:51:24Z</time>
      </trkpt>
      <trkpt lat="47.33045" lon="6.77456">
        <ele>557</ele>
        <time>2011-11-11T13:51:53Z</time>
      </trkpt>
      <trkpt lat="47.33047" lon="6.77502">
        <ele>556</ele>
        <time>2011-11-11T13:52:18Z</time>
      </trkpt>
      <trkpt lat="47.33054" lon="6.77562">
        <ele>557</ele>
        <time>2011-11-11T13:52:51Z</time>
      </trkpt>
      <trkpt lat="47.3306" lon="6.77615">
        <ele>557</ele>
        <time>2011-11-11T13:53:19Z</time>
      </trkpt>
      <trkpt lat="47.33059" lon="6.77671">
        <ele>556</ele>
        <time>2011-11-11T13:53:50Z</time>
      </trkpt>
      <trkpt lat="47.33058" lon="6.77733">
        <ele>554</ele>
        <time>2011-11-11T13:54:24Z</time>
      </trkpt>
      <trkpt lat="47.33058" lon="6.77777">
        <ele>552</ele>
        <time>2011-11-11T13:54:49Z</time>
      </trkpt>
      <trkpt lat="47.33061" lon="6.77831">
        <ele>552</ele>
        <time>2011-11-11T13:55:17Z</time>
      </trkpt>
      <trkpt lat="47.33067" lon="6.77873">
        <ele>548</ele>
        <time>2011-11-11T13:55:39Z</time>
      </trkpt>
      <trkpt lat="47.33083" lon="6.77929">
        <ele>548</ele>
        <time>2011-11-11T13:56:11Z</time>
      </trkpt>
      <trkpt lat="47.33099" lon="6.77957">
        <ele>549</ele>
        <time>2011-11-11T13:56:31Z</time>
      </trkpt>
      <trkpt lat="47.33119" lon="6.77982">
        <ele>548</ele>
        <time>2011-11-11T13:56:50Z</time>
      </trkpt>
      <trkpt lat="47.33139" lon="6.77996">
        <ele>547</ele>
        <time>2011-11-11T13:57:05Z</time>
      </trkpt>
      <trkpt lat="47.33164" lon="6.78008">
        <ele>540</ele>
        <time>2011-11-11T13:57:22Z</time>
      </trkpt>
      <trkpt lat="47.33192" lon="6.78013">
        <ele>538</ele>
        <time>2011-11-11T13:57:41Z</time>
      </trkpt>
      <trkpt lat="47.33208" lon="6.7802">
        <ele>538</ele>
        <time>2011-11-11T13:57:56Z</time>
      </trkpt>
      <trkpt lat="47.33222" lon="6.78021">
        <ele>538</ele>
        <time>2011-11-11T13:58:13Z</time>
      </trkpt>
      <trkpt lat="47.33227" lon="6.78023">
        <ele>538</ele>
        <time>2011-11-11T13:58:37Z</time>
      </trkpt>
      <trkpt lat="47.33227" lon="6.78024">
        <ele>538</ele>
        <time>2011-11-11T13:59:16Z</time>
      </trkpt>
      <trkpt lat="47.33235" lon="6.78033">
        <ele>537</ele>
        <time>2011-11-11T13:59:25Z</time>
      </trkpt>
      <trkpt lat="47.33244" lon="6.78041">
        <ele>536</ele>
        <time>2011-11-11T13:59:35Z</time>
      </trkpt>
      <trkpt lat="47.33247" lon="6.78044">
        <ele>535</ele>
        <time>2011-11-11T13:59:38Z</time>
      </trkpt>
      <trkpt lat="47.33261" lon="6.78055">
        <ele>536</ele>
        <time>2011-11-11T13:59:49Z</time>
      </trkpt>
      <trkpt lat="47.33263" lon="6.78058">
        <ele>536</ele>
        <time>2011-11-11T13:59:51Z</time>
      </trkpt>
      <trkpt lat="47.33281" lon="6.78074">
        <ele>536</ele>
        <time>2011-11-11T14:00:05Z</time>
      </trkpt>
      <trkpt lat="47.33301" lon="6.781">
        <ele>527</ele>
        <time>2011-11-11T14:00:25Z</time>
      </trkpt>
      <trkpt lat="47.33305" lon="6.78106">
        <ele>527</ele>
        <time>2011-11-11T14:00:29Z</time>
      </trkpt>
      <trkpt lat="47.33324" lon="6.7813">
        <ele>525</ele>
        <time>2011-11-11T14:00:49Z</time>
      </trkpt>
      <trkpt lat="47.33343" lon="6.78142">
        <ele>528</ele>
        <time>2011-11-11T14:01:06Z</time>
      </trkpt>
      <trkpt lat="47.33363" lon="6.78151">
        <ele>528</ele>
        <time>2011-11-11T14:01:23Z</time>
      </trkpt>
      <trkpt lat="47.33388" lon="6.78159">
        <ele>529</ele>
        <time>2011-11-11T14:01:42Z</time>
      </trkpt>
      <trkpt lat="47.33409" lon="6.78179">
        <ele>524</ele>
        <time>2011-11-11T14:02:02Z</time>
      </trkpt>
      <trkpt lat="47.33414" lon="6.78182">
        <ele>524</ele>
        <time>2011-11-11T14:02:07Z</time>
      </trkpt>
      <trkpt lat="47.33416" lon="6.78184">
        <ele>524</ele>
        <time>2011-11-11T14:02:09Z</time>
      </trkpt>
      <trkpt lat="47.33424" lon="6.78194">
        <ele>524</ele>
        <time>2011-11-11T14:02:16Z</time>
      </trkpt>
      <trkpt lat="47.33442" lon="6.78213">
        <ele>522</ele>
        <time>2011-11-11T14:02:33Z</time>
      </trkpt>
      <trkpt lat="47.33456" lon="6.78226">
        <ele>522</ele>
        <time>2011-11-11T14:02:47Z</time>
      </trkpt>
      <trkpt lat="47.33462" lon="6.78228">
        <ele>522</ele>
        <time>2011-11-11T14:02:51Z</time>
      </trkpt>
      <trkpt lat="47.33477" lon="6.78233">
        <ele>521</ele>
        <time>2011-11-11T14:03:02Z</time>
      </trkpt>
      <trkpt lat="47.33498" lon="6.7825">
        <ele>518</ele>
        <time>2011-11-11T14:03:20Z</time>
      </trkpt>
      <trkpt lat="47.33507" lon="6.7827">
        <ele>517</ele>
        <time>2011-11-11T14:03:33Z</time>
      </trkpt>
      <trkpt lat="47.33508" lon="6.78314">
        <ele>512</ele>
        <time>2011-11-11T14:03:55Z</time>
      </trkpt>
      <trkpt lat="47.33517" lon="6.78355">
        <ele>506</ele>
        <time>2011-11-11T14:04:17Z</time>
      </trkpt>
      <trkpt lat="47.33521" lon="6.7836">
        <ele>507</ele>
        <time>2011-11-11T14:04:21Z</time>
      </trkpt>
      <trkpt lat="47.3353" lon="6.78372">
        <ele>506</ele>
        <time>2011-11-11T14:04:30Z</time>
      </trkpt>
      <trkpt lat="47.33544" lon="6.78416">
        <ele>505</ele>
        <time>2011-11-11T14:04:56Z</time>
      </trkpt>
      <trkpt lat="47.33543" lon="6.78436">
        <ele>502</ele>
        <time>2011-11-11T14:05:13Z</time>
      </trkpt>
      <trkpt lat="47.33543" lon="6.78435">
        <ele>502</ele>
        <time>2011-11-11T14:05:21Z</time>
      </trkpt>
      <trkpt lat="47.33549" lon="6.78432">
        <ele>503</ele>
        <time>2011-11-11T14:05:31Z</time>
      </trkpt>
      <trkpt lat="47.33554" lon="6.78434">
        <ele>503</ele>
        <time>2011-11-11T14:05:55Z</time>
      </trkpt>
      <trkpt lat="47.33558" lon="6.78438">
        <ele>504</ele>
        <time>2011-11-11T14:06:30Z</time>
      </trkpt>
      <trkpt lat="47.33558" lon="6.78438">
        <ele>504</ele>
        <time>2011-11-11T14:07:09Z</time>
      </trkpt>
      <trkpt lat="47.33558" lon="6.78437">
        <ele>504</ele>
        <time>2011-11-11T14:07:35Z</time>
      </trkpt>
      <trkpt lat="47.33556" lon="6.78437">
        <ele>504</ele>
        <time>2011-11-11T14:08:29Z</time>
      </trkpt>
      <trkpt lat="47.33568" lon="6.78444">
        <ele>504</ele>
        <time>2011-11-11T14:08:48Z</time>
      </trkpt>
      <trkpt lat="47.33579" lon="6.78446">
        <ele>505</ele>
        <time>2011-11-11T14:09:02Z</time>
      </trkpt>
      <trkpt lat="47.33595" lon="6.78445">
        <ele>511</ele>
        <time>2011-11-11T14:09:15Z</time>
      </trkpt>
      <trkpt lat="47.33601" lon="6.78448">
        <ele>511</ele>
        <time>2011-11-11T14:09:20Z</time>
      </trkpt>
      <trkpt lat="47.33601" lon="6.78454">
        <ele>511</ele>
        <time>2011-11-11T14:09:25Z</time>
      </trkpt>
      <trkpt lat="47.33595" lon="6.78493">
        <ele>510</ele>
        <time>2011-11-11T14:09:49Z</time>
      </trkpt>
      <trkpt lat="47.33591" lon="6.78502">
        <ele>511</ele>
        <time>2011-11-11T14:09:56Z</time>
      </trkpt>
      <trkpt lat="47.33563" lon="6.78545">
        <ele>510</ele>
        <time>2011-11-11T14:10:26Z</time>
      </trkpt>
      <trkpt lat="47.33536" lon="6.78577">
        <ele>510</ele>
        <time>2011-11-11T14:10:53Z</time>
      </trkpt>
      <trkpt lat="47.33525" lon="6.78604">
        <ele>519</ele>
        <time>2011-11-11T14:11:13Z</time>
      </trkpt>
      <trkpt lat="47.33525" lon="6.78606">
        <ele>520</ele>
        <time>2011-11-11T14:11:15Z</time>
      </trkpt>
      <trkpt lat="47.33522" lon="6.78613">
        <ele>520</ele>
        <time>2011-11-11T14:11:19Z</time>
      </trkpt>
      <trkpt lat="47.33515" lon="6.78626">
        <ele>522</ele>
        <time>2011-11-11T14:11:28Z</time>
      </trkpt>
      <trkpt lat="47.33496" lon="6.78651">
        <ele>518</ele>
        <time>2011-11-11T14:11:49Z</time>
      </trkpt>
      <trkpt lat="47.3349" lon="6.78656">
        <ele>519</ele>
        <time>2011-11-11T14:11:55Z</time>
      </trkpt>
      <trkpt lat="47.33471" lon="6.78687">
        <ele>527</ele>
        <time>2011-11-11T14:12:21Z</time>
      </trkpt>
      <trkpt lat="47.33456" lon="6.7871">
        <ele>529</ele>
        <time>2011-11-11T14:12:44Z</time>
      </trkpt>
      <trkpt lat="47.33455" lon="6.78711">
        <ele>529</ele>
        <time>2011-11-11T14:12:45Z</time>
      </trkpt>
      <trkpt lat="47.33449" lon="6.78723">
        <ele>529</ele>
        <time>2011-11-11T14:12:56Z</time>
      </trkpt>
      <trkpt lat="47.33444" lon="6.78729">
        <ele>529</ele>
        <time>2011-11-11T14:13:03Z</time>
      </trkpt>
      <trkpt lat="47.33433" lon="6.78742">
        <ele>529</ele>
        <time>2011-11-11T14:13:17Z</time>
      </trkpt>
      <trkpt lat="47.3343" lon="6.78745">
        <ele>529</ele>
        <time>2011-11-11T14:13:21Z</time>
      </trkpt>
      <trkpt lat="47.33425" lon="6.78752">
        <ele>536</ele>
        <time>2011-11-11T14:13:27Z</time>
      </trkpt>
      <trkpt lat="47.33405" lon="6.78778">
        <ele>535</ele>
        <time>2011-11-11T14:13:51Z</time>
      </trkpt>
      <trkpt lat="47.33391" lon="6.78798">
        <ele>537</ele>
        <time>2011-11-11T14:14:09Z</time>
      </trkpt>
      <trkpt lat="47.33387" lon="6.7881">
        <ele>539</ele>
        <time>2011-11-11T14:14:22Z</time>
      </trkpt>
      <trkpt lat="47.33373" lon="6.78823">
        <ele>538</ele>
        <time>2011-11-11T14:14:38Z</time>
      </trkpt>
      <trkpt lat="47.33357" lon="6.78835">
        <ele>549</ele>
        <time>2011-11-11T14:14:59Z</time>
      </trkpt>
      <trkpt lat="47.33341" lon="6.78848">
        <ele>547</ele>
        <time>2011-11-11T14:15:15Z</time>
      </trkpt>
      <trkpt lat="47.33332" lon="6.78856">
        <ele>540</ele>
        <time>2011-11-11T14:15:23Z</time>
      </trkpt>
      <trkpt lat="47.33328" lon="6.78862">
        <ele>541</ele>
        <time>2011-11-11T14:15:29Z</time>
      </trkpt>
      <trkpt lat="47.33325" lon="6.78863">
        <ele>541</ele>
        <time>2011-11-11T14:15:31Z</time>
      </trkpt>
      <trkpt lat="47.33307" lon="6.78883">
        <ele>544</ele>
        <time>2011-11-11T14:15:54Z</time>
      </trkpt>
      <trkpt lat="47.333" lon="6.78889">
        <ele>545</ele>
        <time>2011-11-11T14:16:00Z</time>
      </trkpt>
      <trkpt lat="47.33299" lon="6.78892">
        <ele>545</ele>
        <time>2011-11-11T14:16:02Z</time>
      </trkpt>
      <trkpt lat="47.33285" lon="6.78903">
        <ele>545</ele>
        <time>2011-11-11T14:16:18Z</time>
      </trkpt>
      <trkpt lat="47.33281" lon="6.78911">
        <ele>545</ele>
        <time>2011-11-11T14:16:31Z</time>
      </trkpt>
      <trkpt lat="47.33277" lon="6.78919">
        <ele>559</ele>
        <time>2011-11-11T14:17:17Z</time>
      </trkpt>
      <trkpt lat="47.33262" lon="6.78947">
        <ele>562</ele>
        <time>2011-11-11T14:17:38Z</time>
      </trkpt>
      <trkpt lat="47.3324" lon="6.78984">
        <ele>558</ele>
        <time>2011-11-11T14:18:04Z</time>
      </trkpt>
      <trkpt lat="47.3323" lon="6.7899">
        <ele>557</ele>
        <time>2011-11-11T14:18:16Z</time>
      </trkpt>
      <trkpt lat="47.33226" lon="6.7899">
        <ele>556</ele>
        <time>2011-11-11T14:18:19Z</time>
      </trkpt>
      <trkpt lat="47.33219" lon="6.78995">
        <ele>554</ele>
        <time>2011-11-11T14:18:27Z</time>
      </trkpt>
      <trkpt lat="47.33204" lon="6.79004">
        <ele>561</ele>
        <time>2011-11-11T14:18:42Z</time>
      </trkpt>
      <trkpt lat="47.33202" lon="6.79007">
        <ele>561</ele>
        <time>2011-11-11T14:18:44Z</time>
      </trkpt>
      <trkpt lat="47.33179" lon="6.79033">
        <ele>560</ele>
        <time>2011-11-11T14:19:07Z</time>
      </trkpt>
      <trkpt lat="47.33154" lon="6.79056">
        <ele>547</ele>
        <time>2011-11-11T14:19:30Z</time>
      </trkpt>
      <trkpt lat="47.33145" lon="6.79067">
        <ele>548</ele>
        <time>2011-11-11T14:19:40Z</time>
      </trkpt>
      <trkpt lat="47.33123" lon="6.79086">
        <ele>553</ele>
        <time>2011-11-11T14:20:02Z</time>
      </trkpt>
      <trkpt lat="47.33094" lon="6.79108">
        <ele>550</ele>
        <time>2011-11-11T14:20:29Z</time>
      </trkpt>
      <trkpt lat="47.3307" lon="6.79123">
        <ele>544</ele>
        <time>2011-11-11T14:20:48Z</time>
      </trkpt>
      <trkpt lat="47.33053" lon="6.79135">
        <ele>545</ele>
        <time>2011-11-11T14:21:05Z</time>
      </trkpt>
      <trkpt lat="47.33044" lon="6.79139">
        <ele>545</ele>
        <time>2011-11-11T14:21:14Z</time>
      </trkpt>
      <trkpt lat="47.3304" lon="6.79139">
        <ele>545</ele>
        <time>2011-11-11T14:21:17Z</time>
      </trkpt>
      <trkpt lat="47.33011" lon="6.79158">
        <ele>546</ele>
        <time>2011-11-11T14:21:38Z</time>
      </trkpt>
      <trkpt lat="47.3299" lon="6.79173">
        <ele>546</ele>
        <time>2011-11-11T14:21:58Z</time>
      </trkpt>
      <trkpt lat="47.32984" lon="6.79172">
        <ele>545</ele>
        <time>2011-11-11T14:22:20Z</time>
      </trkpt>
      <trkpt lat="47.32986" lon="6.79175">
        <ele>546</ele>
        <time>2011-11-11T14:22:23Z</time>
      </trkpt>
      <trkpt lat="47.32987" lon="6.79199">
        <ele>546</ele>
        <time>2011-11-11T14:22:42Z</time>
      </trkpt>
      <trkpt lat="47.32984" lon="6.79216">
        <ele>548</ele>
        <time>2011-11-11T14:22:57Z</time>
      </trkpt>
      <trkpt lat="47.32986" lon="6.79236">
        <ele>552</ele>
        <time>2011-11-11T14:23:24Z</time>
      </trkpt>
      <trkpt lat="47.32984" lon="6.79271">
        <ele>561</ele>
        <time>2011-11-11T14:23:46Z</time>
      </trkpt>
      <trkpt lat="47.3297" lon="6.79301">
        <ele>564</ele>
        <time>2011-11-11T14:24:10Z</time>
      </trkpt>
      <trkpt lat="47.32952" lon="6.7933">
        <ele>563</ele>
        <time>2011-11-11T14:24:34Z</time>
      </trkpt>
      <trkpt lat="47.32939" lon="6.79354">
        <ele>578</ele>
        <time>2011-11-11T14:24:57Z</time>
      </trkpt>
      <trkpt lat="47.32929" lon="6.79374">
        <ele>582</ele>
        <time>2011-11-11T14:25:18Z</time>
      </trkpt>
      <trkpt lat="47.32919" lon="6.79391">
        <ele>585</ele>
        <time>2011-11-11T14:25:35Z</time>
      </trkpt>
      <trkpt lat="47.32908" lon="6.79416">
        <ele>587</ele>
        <time>2011-11-11T14:26:06Z</time>
      </trkpt>
      <trkpt lat="47.32919" lon="6.79417">
        <ele>591</ele>
        <time>2011-11-11T14:26:24Z</time>
      </trkpt>
      <trkpt lat="47.32919" lon="6.79417">
        <ele>591</ele>
        <time>2011-11-11T14:26:35Z</time>
      </trkpt>
      <trkpt lat="47.32932" lon="6.79438">
        <ele>603</ele>
        <time>2011-11-11T14:26:59Z</time>
      </trkpt>
      <trkpt lat="47.32941" lon="6.79455">
        <ele>608</ele>
        <time>2011-11-11T14:27:18Z</time>
      </trkpt>
      <trkpt lat="47.32937" lon="6.79457">
        <ele>608</ele>
        <time>2011-11-11T14:27:39Z</time>
      </trkpt>
      <trkpt lat="47.32938" lon="6.79462">
        <ele>609</ele>
        <time>2011-11-11T14:28:01Z</time>
      </trkpt>
      <trkpt lat="47.32925" lon="6.79478">
        <ele>611</ele>
        <time>2011-11-11T14:28:17Z</time>
      </trkpt>
      <trkpt lat="47.32924" lon="6.79473">
        <ele>610</ele>
        <time>2011-11-11T14:28:40Z</time>
      </trkpt>
      <trkpt lat="47.32915" lon="6.79485">
        <ele>610</ele>
        <time>2011-11-11T14:29:15Z</time>
      </trkpt>
      <trkpt lat="47.32924" lon="6.79491">
        <ele>612</ele>
        <time>2011-11-11T14:29:51Z</time>
      </trkpt>
      <trkpt lat="47.32926" lon="6.79484">
        <ele>612</ele>
        <time>2011-11-11T14:30:14Z</time>
      </trkpt>
      <trkpt lat="47.32931" lon="6.79484">
        <ele>612</ele>
        <time>2011-11-11T14:30:28Z</time>
      </trkpt>
      <trkpt lat="47.32956" lon="6.79497">
        <ele>614</ele>
        <time>2011-11-11T14:30:58Z</time>
      </trkpt>
      <trkpt lat="47.3295" lon="6.79492">
        <ele>613</ele>
        <time>2011-11-11T14:31:33Z</time>
      </trkpt>
      <trkpt lat="47.32951" lon="6.79507">
        <ele>623</ele>
        <time>2011-11-11T14:31:55Z</time>
      </trkpt>
      <trkpt lat="47.32951" lon="6.79508">
        <ele>623</ele>
        <time>2011-11-11T14:31:56Z</time>
      </trkpt>
      <trkpt lat="47.32953" lon="6.79515">
        <ele>624</ele>
        <time>2011-11-11T14:32:07Z</time>
      </trkpt>
      <trkpt lat="47.32928" lon="6.79491">
        <ele>612</ele>
        <time>2011-11-11T14:35:25Z</time>
      </trkpt>
      <trkpt lat="47.32928" lon="6.79491">
        <ele>612</ele>
        <time>2011-11-11T14:35:34Z</time>
      </trkpt>
      <trkpt lat="47.32923" lon="6.79533">
        <ele>623</ele>
        <time>2011-11-11T14:35:55Z</time>
      </trkpt>
      <trkpt lat="47.32927" lon="6.79532">
        <ele>623</ele>
        <time>2011-11-11T14:36:45Z</time>
      </trkpt>
      <trkpt lat="47.32928" lon="6.79524">
        <ele>622</ele>
        <time>2011-11-11T14:37:12Z</time>
      </trkpt>
      <trkpt lat="47.32926" lon="6.79523">
        <ele>621</ele>
        <time>2011-11-11T14:37:49Z</time>
      </trkpt>
      <trkpt lat="47.32925" lon="6.79531">
        <ele>623</ele>
        <time>2011-11-11T14:38:20Z</time>
      </trkpt>
      <trkpt lat="47.32928" lon="6.79533">
        <ele>623</ele>
        <time>2011-11-11T14:38:49Z</time>
      </trkpt>
      <trkpt lat="47.32935" lon="6.79495">
        <ele>613</ele>
        <time>2011-11-11T14:39:35Z</time>
      </trkpt>
      <trkpt lat="47.32938" lon="6.79471">
        <ele>610</ele>
        <time>2011-11-11T14:39:55Z</time>
      </trkpt>
      <trkpt lat="47.32951" lon="6.79462">
        <ele>610</ele>
        <time>2011-11-11T14:40:10Z</time>
      </trkpt>
      <trkpt lat="47.32962" lon="6.79485">
        <ele>614</ele>
        <time>2011-11-11T14:40:29Z</time>
      </trkpt>
      <trkpt lat="47.32955" lon="6.7949">
        <ele>613</ele>
        <time>2011-11-11T14:40:49Z</time>
      </trkpt>
      <trkpt lat="47.32945" lon="6.79496">
        <ele>613</ele>
        <time>2011-11-11T14:41:07Z</time>
      </trkpt>
      <trkpt lat="47.32944" lon="6.79495">
        <ele>613</ele>
        <time>2011-11-11T14:41:08Z</time>
      </trkpt>
      <trkpt lat="47.32936" lon="6.79476">
        <ele>611</ele>
        <time>2011-11-11T14:41:22Z</time>
      </trkpt>
      <trkpt lat="47.3294" lon="6.79483">
        <ele>612</ele>
        <time>2011-11-11T14:41:29Z</time>
      </trkpt>
      <trkpt lat="47.32943" lon="6.79486">
        <ele>612</ele>
        <time>2011-11-11T14:41:31Z</time>
      </trkpt>
      <trkpt lat="47.32948" lon="6.79476">
        <ele>611</ele>
        <time>2011-11-11T14:41:56Z</time>
      </trkpt>
      <trkpt lat="47.32936" lon="6.79483">
        <ele>612</ele>
        <time>2011-11-11T14:42:31Z</time>
      </trkpt>
      <trkpt lat="47.32934" lon="6.79482">
        <ele>611</ele>
        <time>2011-11-11T14:42:33Z</time>
      </trkpt>
      <trkpt lat="47.32935" lon="6.79482">
        <ele>611</ele>
        <time>2011-11-11T14:42:35Z</time>
      </trkpt>
      <trkpt lat="47.32934" lon="6.79483">
        <ele>611</ele>
        <time>2011-11-11T14:42:36Z</time>
      </trkpt>
      <trkpt lat="47.32933" lon="6.7948">
        <ele>611</ele>
        <time>2011-11-11T14:42:37Z</time>
      </trkpt>
      <trkpt lat="47.32932" lon="6.7948">
        <ele>611</ele>
        <time>2011-11-11T14:42:39Z</time>
      </trkpt>
      <trkpt lat="47.32932" lon="6.79482">
        <ele>611</ele>
        <time>2011-11-11T14:42:41Z</time>
      </trkpt>
      <trkpt lat="47.32927" lon="6.79462">
        <ele>608</ele>
        <time>2011-11-11T14:42:59Z</time>
      </trkpt>
      <trkpt lat="47.32934" lon="6.7947">
        <ele>610</ele>
        <time>2011-11-11T14:43:15Z</time>
      </trkpt>
      <trkpt lat="47.32926" lon="6.79453">
        <ele>606</ele>
        <time>2011-11-11T14:43:39Z</time>
      </trkpt>
      <trkpt lat="47.32932" lon="6.79457">
        <ele>608</ele>
        <time>2011-11-11T14:44:14Z</time>
      </trkpt>
      <trkpt lat="47.32938" lon="6.79466">
        <ele>610</ele>
        <time>2011-11-11T14:44:26Z</time>
      </trkpt>
      <trkpt lat="47.32941" lon="6.7947">
        <ele>610</ele>
        <time>2011-11-11T14:44:28Z</time>
      </trkpt>
      <trkpt lat="47.32941" lon="6.79472">
        <ele>611</ele>
        <time>2011-11-11T14:44:29Z</time>
      </trkpt>
      <trkpt lat="47.3294" lon="6.79474">
        <ele>611</ele>
        <time>2011-11-11T14:44:30Z</time>
      </trkpt>
      <trkpt lat="47.32938" lon="6.79485">
        <ele>612</ele>
        <time>2011-11-11T14:44:45Z</time>
      </trkpt>
      <trkpt lat="47.32935" lon="6.79494">
        <ele>612</ele>
        <time>2011-11-11T14:45:03Z</time>
      </trkpt>
      <trkpt lat="47.32941" lon="6.79501">
        <ele>621</ele>
        <time>2011-11-11T14:45:12Z</time>
      </trkpt>
      <trkpt lat="47.32936" lon="6.79484">
        <ele>612</ele>
        <time>2011-11-11T14:45:32Z</time>
      </trkpt>
      <trkpt lat="47.32935" lon="6.79484">
        <ele>612</ele>
        <time>2011-11-11T14:45:38Z</time>
      </trkpt>
      <trkpt lat="47.32936" lon="6.79485">
        <ele>612</ele>
        <time>2011-11-11T14:45:39Z</time>
      </trkpt>
      <trkpt lat="47.32936" lon="6.79486">
        <ele>612</ele>
        <time>2011-11-11T14:45:40Z</time>
      </trkpt>
      <trkpt lat="47.32942" lon="6.7949">
        <ele>612</ele>
        <time>2011-11-11T14:45:55Z</time>
      </trkpt>
      <trkpt lat="47.32943" lon="6.79501">
        <ele>622</ele>
        <time>2011-11-11T14:46:05Z</time>
      </trkpt>
      <trkpt lat="47.32942" lon="6.79499">
        <ele>613</ele>
        <time>2011-11-11T14:46:08Z</time>
      </trkpt>
      <trkpt lat="47.32948" lon="6.79504">
        <ele>622</ele>
        <time>2011-11-11T14:46:17Z</time>
      </trkpt>
      <trkpt lat="47.32943" lon="6.79513">
        <ele>622</ele>
        <time>2011-11-11T14:46:26Z</time>
      </trkpt>
      <trkpt lat="47.32939" lon="6.79508">
        <ele>621</ele>
        <time>2011-11-11T14:46:32Z</time>
      </trkpt>
      <trkpt lat="47.32931" lon="6.79508">
        <ele>620</ele>
        <time>2011-11-11T14:46:40Z</time>
      </trkpt>
      <trkpt lat="47.32929" lon="6.79503">
        <ele>619</ele>
        <time>2011-11-11T14:46:49Z</time>
      </trkpt>
      <trkpt lat="47.32927" lon="6.79497">
        <ele>613</ele>
        <time>2011-11-11T14:46:54Z</time>
      </trkpt>
      <trkpt lat="47.32927" lon="6.79498">
        <ele>613</ele>
        <time>2011-11-11T14:46:58Z</time>
      </trkpt>
      <trkpt lat="47.32926" lon="6.79497">
        <ele>613</ele>
        <time>2011-11-11T14:47:05Z</time>
      </trkpt>
      <trkpt lat="47.32929" lon="6.79501">
        <ele>618</ele>
        <time>2011-11-11T14:47:17Z</time>
      </trkpt>
      <trkpt lat="47.3293" lon="6.79507">
        <ele>619</ele>
        <time>2011-11-11T14:47:25Z</time>
      </trkpt>
      <trkpt lat="47.32931" lon="6.79502">
        <ele>619</ele>
        <time>2011-11-11T14:47:34Z</time>
      </trkpt>
      <trkpt lat="47.32929" lon="6.79502">
        <ele>618</ele>
        <time>2011-11-11T14:47:37Z</time>
      </trkpt>
      <trkpt lat="47.32928" lon="6.79518">
        <ele>621</ele>
        <time>2011-11-11T14:47:46Z</time>
      </trkpt>
      <trkpt lat="47.32928" lon="6.79508">
        <ele>619</ele>
        <time>2011-11-11T14:47:58Z</time>
      </trkpt>
      <trkpt lat="47.32931" lon="6.79515">
        <ele>621</ele>
        <time>2011-11-11T14:48:07Z</time>
      </trkpt>
      <trkpt lat="47.32936" lon="6.7952">
        <ele>622</ele>
        <time>2011-11-11T14:48:10Z</time>
      </trkpt>
      <trkpt lat="47.3294" lon="6.79524">
        <ele>623</ele>
        <time>2011-11-11T14:48:13Z</time>
      </trkpt>
      <trkpt lat="47.32943" lon="6.79509">
        <ele>622</ele>
        <time>2011-11-11T14:48:24Z</time>
      </trkpt>
      <trkpt lat="47.32944" lon="6.79523">
        <ele>623</ele>
        <time>2011-11-11T14:48:36Z</time>
      </trkpt>
      <trkpt lat="47.32937" lon="6.79523">
        <ele>623</ele>
        <time>2011-11-11T14:48:45Z</time>
      </trkpt>
      <trkpt lat="47.32937" lon="6.79524">
        <ele>623</ele>
        <time>2011-11-11T14:48:49Z</time>
      </trkpt>
      <trkpt lat="47.32935" lon="6.79523">
        <ele>622</ele>
        <time>2011-11-11T14:48:53Z</time>
      </trkpt>
      <trkpt lat="47.32934" lon="6.79512">
        <ele>621</ele>
        <time>2011-11-11T14:48:57Z</time>
      </trkpt>
      <trkpt lat="47.3293" lon="6.79507">
        <ele>619</ele>
        <time>2011-11-11T14:49:01Z</time>
      </trkpt>
      <trkpt lat="47.32939" lon="6.79504">
        <ele>621</ele>
        <time>2011-11-11T14:49:07Z</time>
      </trkpt>
      <trkpt lat="47.32945" lon="6.79509">
        <ele>622</ele>
        <time>2011-11-11T14:49:12Z</time>
      </trkpt>
      <trkpt lat="47.32946" lon="6.79517">
        <ele>623</ele>
        <time>2011-11-11T14:49:19Z</time>
      </trkpt>
      <trkpt lat="47.32945" lon="6.79499">
        <ele>613</ele>
        <time>2011-11-11T14:49:26Z</time>
      </trkpt>
      <trkpt lat="47.32946" lon="6.79497">
        <ele>613</ele>
        <time>2011-11-11T14:49:30Z</time>
      </trkpt>
      <trkpt lat="47.32943" lon="6.79493">
        <ele>613</ele>
        <time>2011-11-11T14:49:36Z</time>
      </trkpt>
      <trkpt lat="47.32943" lon="6.79494">
        <ele>613</ele>
        <time>2011-11-11T14:49:41Z</time>
      </trkpt>
      <trkpt lat="47.3295" lon="6.79511">
        <ele>623</ele>
        <time>2011-11-11T14:49:50Z</time>
      </trkpt>
      <trkpt lat="47.32957" lon="6.79516">
        <ele>624</ele>
        <time>2011-11-11T14:49:57Z</time>
      </trkpt>
      <trkpt lat="47.32956" lon="6.79534">
        <ele>625</ele>
        <time>2011-11-11T14:50:07Z</time>
      </trkpt>
      <trkpt lat="47.32953" lon="6.79515">
        <ele>624</ele>
        <time>2011-11-11T14:50:21Z</time>
      </trkpt>
      <trkpt lat="47.32958" lon="6.79523">
        <ele>625</ele>
        <time>2011-11-11T14:50:30Z</time>
      </trkpt>
      <trkpt lat="47.32955" lon="6.79532">
        <ele>625</ele>
        <time>2011-11-11T14:50:41Z</time>
      </trkpt>
      <trkpt lat="47.32944" lon="6.79509">
        <ele>622</ele>
        <time>2011-11-11T14:50:54Z</time>
      </trkpt>
      <trkpt lat="47.32948" lon="6.79512">
        <ele>623</ele>
        <time>2011-11-11T14:51:05Z</time>
      </trkpt>
      <trkpt lat="47.32951" lon="6.7951">
        <ele>623</ele>
        <time>2011-11-11T14:51:10Z</time>
      </trkpt>
      <trkpt lat="47.32945" lon="6.79495">
        <ele>613</ele>
        <time>2011-11-11T14:51:21Z</time>
      </trkpt>
      <trkpt lat="47.3294" lon="6.79485">
        <ele>612</ele>
        <time>2011-11-11T14:51:29Z</time>
      </trkpt>
      <trkpt lat="47.32925" lon="6.79482">
        <ele>611</ele>
        <time>2011-11-11T14:51:41Z</time>
      </trkpt>
      <trkpt lat="47.32921" lon="6.79477">
        <ele>611</ele>
        <time>2011-11-11T14:51:43Z</time>
      </trkpt>
      <trkpt lat="47.32899" lon="6.79465">
        <ele>606</ele>
        <time>2011-11-11T14:52:08Z</time>
      </trkpt>
      <trkpt lat="47.32887" lon="6.79469">
        <ele>607</ele>
        <time>2011-11-11T14:52:23Z</time>
      </trkpt>
      <trkpt lat="47.32873" lon="6.79469">
        <ele>608</ele>
        <time>2011-11-11T14:52:38Z</time>
      </trkpt>
      <trkpt lat="47.32859" lon="6.79465">
        <ele>608</ele>
        <time>2011-11-11T14:52:59Z</time>
      </trkpt>
      <trkpt lat="47.32848" lon="6.79454">
        <ele>607</ele>
        <time>2011-11-11T14:53:23Z</time>
      </trkpt>
      <trkpt lat="47.32837" lon="6.79449">
        <ele>606</ele>
        <time>2011-11-11T14:53:48Z</time>
      </trkpt>
      <trkpt lat="47.32824" lon="6.79435">
        <ele>601</ele>
        <time>2011-11-11T14:54:09Z</time>
      </trkpt>
      <trkpt lat="47.32812" lon="6.79438">
        <ele>602</ele>
        <time>2011-11-11T14:54:27Z</time>
      </trkpt>
      <trkpt lat="47.328" lon="6.79438">
        <ele>601</ele>
        <time>2011-11-11T14:54:50Z</time>
      </trkpt>
      <trkpt lat="47.32794" lon="6.79434">
        <ele>600</ele>
        <time>2011-11-11T14:55:08Z</time>
      </trkpt>
      <trkpt lat="47.32791" lon="6.79439">
        <ele>600</ele>
        <time>2011-11-11T14:55:37Z</time>
      </trkpt>
      <trkpt lat="47.32794" lon="6.79442">
        <ele>601</ele>
        <time>2011-11-11T14:55:53Z</time>
      </trkpt>
      <trkpt lat="47.32804" lon="6.79447">
        <ele>602</ele>
        <time>2011-11-11T14:56:12Z</time>
      </trkpt>
      <trkpt lat="47.32801" lon="6.79453">
        <ele>602</ele>
        <time>2011-11-11T14:56:44Z</time>
      </trkpt>
      <trkpt lat="47.32797" lon="6.79463">
        <ele>603</ele>
        <time>2011-11-11T14:57:00Z</time>
      </trkpt>
      <trkpt lat="47.32793" lon="6.7947">
        <ele>603</ele>
        <time>2011-11-11T14:57:17Z</time>
      </trkpt>
      <trkpt lat="47.32794" lon="6.79475">
        <ele>604</ele>
        <time>2011-11-11T14:57:35Z</time>
      </trkpt>
      <trkpt lat="47.32807" lon="6.79488">
        <ele>608</ele>
        <time>2011-11-11T14:57:53Z</time>
      </trkpt>
      <trkpt lat="47.32811" lon="6.79515">
        <ele>613</ele>
        <time>2011-11-11T14:58:19Z</time>
      </trkpt>
      <trkpt lat="47.32814" lon="6.79542">
        <ele>612</ele>
        <time>2011-11-11T14:58:45Z</time>
      </trkpt>
      <trkpt lat="47.32818" lon="6.79568">
        <ele>615</ele>
        <time>2011-11-11T14:59:05Z</time>
      </trkpt>
      <trkpt lat="47.32828" lon="6.79591">
        <ele>620</ele>
        <time>2011-11-11T14:59:28Z</time>
      </trkpt>
      <trkpt lat="47.32831" lon="6.79617">
        <ele>615</ele>
        <time>2011-11-11T14:59:49Z</time>
      </trkpt>
      <trkpt lat="47.32838" lon="6.7964">
        <ele>629</ele>
        <time>2011-11-11T15:00:07Z</time>
      </trkpt>
      <trkpt lat="47.32842" lon="6.79646">
        <ele>629</ele>
        <time>2011-11-11T15:00:20Z</time>
      </trkpt>
      <trkpt lat="47.32847" lon="6.79659">
        <ele>629</ele>
        <time>2011-11-11T15:00:37Z</time>
      </trkpt>
      <trkpt lat="47.32852" lon="6.79671">
        <ele>633</ele>
        <time>2011-11-11T15:00:57Z</time>
      </trkpt>
      <trkpt lat="47.32853" lon="6.79675">
        <ele>633</ele>
        <time>2011-11-11T15:01:40Z</time>
      </trkpt>
      <trkpt lat="47.32873" lon="6.79686">
        <ele>636</ele>
        <time>2011-11-11T15:02:19Z</time>
      </trkpt>
      <trkpt lat="47.32884" lon="6.7971">
        <ele>638</ele>
        <time>2011-11-11T15:02:52Z</time>
      </trkpt>
      <trkpt lat="47.32892" lon="6.7972">
        <ele>640</ele>
        <time>2011-11-11T15:03:12Z</time>
      </trkpt>
      <trkpt lat="47.32896" lon="6.79749">
        <ele>644</ele>
        <time>2011-11-11T15:03:36Z</time>
      </trkpt>
      <trkpt lat="47.32903" lon="6.79769">
        <ele>648</ele>
        <time>2011-11-11T15:03:56Z</time>
      </trkpt>
      <trkpt lat="47.32906" lon="6.79793">
        <ele>648</ele>
        <time>2011-11-11T15:04:18Z</time>
      </trkpt>
      <trkpt lat="47.32908" lon="6.79821">
        <ele>652</ele>
        <time>2011-11-11T15:04:38Z</time>
      </trkpt>
      <trkpt lat="47.32906" lon="6.79853">
        <ele>647</ele>
        <time>2011-11-11T15:05:01Z</time>
      </trkpt>
      <trkpt lat="47.32905" lon="6.79897">
        <ele>645</ele>
        <time>2011-11-11T15:05:28Z</time>
      </trkpt>
      <trkpt lat="47.32908" lon="6.79932">
        <ele>638</ele>
        <time>2011-11-11T15:05:51Z</time>
      </trkpt>
      <trkpt lat="47.32909" lon="6.79955">
        <ele>630</ele>
        <time>2011-11-11T15:06:10Z</time>
      </trkpt>
      <trkpt lat="47.32916" lon="6.79965">
        <ele>629</ele>
        <time>2011-11-11T15:06:20Z</time>
      </trkpt>
      <trkpt lat="47.32917" lon="6.79987">
        <ele>641</ele>
        <time>2011-11-11T15:06:46Z</time>
      </trkpt>
      <trkpt lat="47.32906" lon="6.80002">
        <ele>623</ele>
        <time>2011-11-11T15:07:17Z</time>
      </trkpt>
      <trkpt lat="47.32902" lon="6.80003">
        <ele>619</ele>
        <time>2011-11-11T15:07:46Z</time>
      </trkpt>
      <trkpt lat="47.32912" lon="6.80023">
        <ele>616</ele>
        <time>2011-11-11T15:09:08Z</time>
      </trkpt>
      <trkpt lat="47.32918" lon="6.80045">
        <ele>634</ele>
        <time>2011-11-11T15:09:28Z</time>
      </trkpt>
      <trkpt lat="47.32929" lon="6.80059">
        <ele>633</ele>
        <time>2011-11-11T15:09:49Z</time>
      </trkpt>
      <trkpt lat="47.32938" lon="6.80079">
        <ele>631</ele>
        <time>2011-11-11T15:10:12Z</time>
      </trkpt>
      <trkpt lat="47.32946" lon="6.80096">
        <ele>625</ele>
        <time>2011-11-11T15:10:34Z</time>
      </trkpt>
      <trkpt lat="47.32956" lon="6.80109">
        <ele>627</ele>
        <time>2011-11-11T15:10:54Z</time>
      </trkpt>
      <trkpt lat="47.32967" lon="6.80134">
        <ele>628</ele>
        <time>2011-11-11T15:11:16Z</time>
      </trkpt>
      <trkpt lat="47.32984" lon="6.8015">
        <ele>633</ele>
        <time>2011-11-11T15:11:40Z</time>
      </trkpt>
      <trkpt lat="47.33" lon="6.80162">
        <ele>640</ele>
        <time>2011-11-11T15:12:17Z</time>
      </trkpt>
      <trkpt lat="47.33013" lon="6.80191">
        <ele>643</ele>
        <time>2011-11-11T15:12:43Z</time>
      </trkpt>
      <trkpt lat="47.3303" lon="6.80217">
        <ele>643</ele>
        <time>2011-11-11T15:13:02Z</time>
      </trkpt>
      <trkpt lat="47.33041" lon="6.8023">
        <ele>644</ele>
        <time>2011-11-11T15:13:24Z</time>
      </trkpt>
      <trkpt lat="47.33051" lon="6.80248">
        <ele>646</ele>
        <time>2011-11-11T15:13:44Z</time>
      </trkpt>
      <trkpt lat="47.33064" lon="6.80266">
        <ele>638</ele>
        <time>2011-11-11T15:14:03Z</time>
      </trkpt>
      <trkpt lat="47.33071" lon="6.80267">
        <ele>641</ele>
        <time>2011-11-11T15:14:21Z</time>
      </trkpt>
      <trkpt lat="47.33083" lon="6.80278">
        <ele>658</ele>
        <time>2011-11-11T15:14:56Z</time>
      </trkpt>
      <trkpt lat="47.33085" lon="6.80289">
        <ele>656</ele>
        <time>2011-11-11T15:15:25Z</time>
      </trkpt>
      <trkpt lat="47.33089" lon="6.80306">
        <ele>654</ele>
        <time>2011-11-11T15:15:38Z</time>
      </trkpt>
      <trkpt lat="47.33091" lon="6.80319">
        <ele>651</ele>
        <time>2011-11-11T15:15:56Z</time>
      </trkpt>
      <trkpt lat="47.33107" lon="6.80354">
        <ele>645</ele>
        <time>2011-11-11T15:16:16Z</time>
      </trkpt>
      <trkpt lat="47.33115" lon="6.80366">
        <ele>645</ele>
        <time>2011-11-11T15:16:35Z</time>
      </trkpt>
      <trkpt lat="47.33129" lon="6.80383">
        <ele>646</ele>
        <time>2011-11-11T15:16:51Z</time>
      </trkpt>
      <trkpt lat="47.33151" lon="6.80419">
        <ele>645</ele>
        <time>2011-11-11T15:17:13Z</time>
      </trkpt>
      <trkpt lat="47.33155" lon="6.8044">
        <ele>640</ele>
        <time>2011-11-11T15:17:28Z</time>
      </trkpt>
      <trkpt lat="47.33162" lon="6.80459">
        <ele>637</ele>
        <time>2011-11-11T15:17:45Z</time>
      </trkpt>
      <trkpt lat="47.33172" lon="6.80477">
        <ele>656</ele>
        <time>2011-11-11T15:18:01Z</time>
      </trkpt>
      <trkpt lat="47.33186" lon="6.80513">
        <ele>649</ele>
        <time>2011-11-11T15:18:28Z</time>
      </trkpt>
      <trkpt lat="47.33195" lon="6.80538">
        <ele>648</ele>
        <time>2011-11-11T15:18:46Z</time>
      </trkpt>
      <trkpt lat="47.33203" lon="6.80562">
        <ele>647</ele>
        <time>2011-11-11T15:19:06Z</time>
      </trkpt>
      <trkpt lat="47.33216" lon="6.80591">
        <ele>639</ele>
        <time>2011-11-11T15:19:26Z</time>
      </trkpt>
      <trkpt lat="47.33226" lon="6.80617">
        <ele>638</ele>
        <time>2011-11-11T15:19:48Z</time>
      </trkpt>
      <trkpt lat="47.33242" lon="6.8065">
        <ele>640</ele>
        <time>2011-11-11T15:20:08Z</time>
      </trkpt>
      <trkpt lat="47.33248" lon="6.80685">
        <ele>631</ele>
        <time>2011-11-11T15:20:31Z</time>
      </trkpt>
      <trkpt lat="47.33258" lon="6.80718">
        <ele>646</ele>
        <time>2011-11-11T15:20:54Z</time>
      </trkpt>
      <trkpt lat="47.3326" lon="6.80748">
        <ele>638</ele>
        <time>2011-11-11T15:21:18Z</time>
      </trkpt>
      <trkpt lat="47.33267" lon="6.80779">
        <ele>637</ele>
        <time>2011-11-11T15:21:37Z</time>
      </trkpt>
      <trkpt lat="47.33278" lon="6.80794">
        <ele>638</ele>
        <time>2011-11-11T15:22:00Z</time>
      </trkpt>
      <trkpt lat="47.33285" lon="6.80815">
        <ele>638</ele>
        <time>2011-11-11T15:22:19Z</time>
      </trkpt>
      <trkpt lat="47.3329" lon="6.80832">
        <ele>639</ele>
        <time>2011-11-11T15:22:34Z</time>
      </trkpt>
      <trkpt lat="47.33295" lon="6.80867">
        <ele>636</ele>
        <time>2011-11-11T15:22:55Z</time>
      </trkpt>
      <trkpt lat="47.33297" lon="6.80903">
        <ele>636</ele>
        <time>2011-11-11T15:23:19Z</time>
      </trkpt>
      <trkpt lat="47.33301" lon="6.80914">
        <ele>637</ele>
        <time>2011-11-11T15:23:25Z</time>
      </trkpt>
      <trkpt lat="47.33309" lon="6.80929">
        <ele>635</ele>
        <time>2011-11-11T15:23:37Z</time>
      </trkpt>
      <trkpt lat="47.33318" lon="6.80958">
        <ele>634</ele>
        <time>2011-11-11T15:23:57Z</time>
      </trkpt>
      <trkpt lat="47.3333" lon="6.80995">
        <ele>642</ele>
        <time>2011-11-11T15:24:21Z</time>
      </trkpt>
      <trkpt lat="47.33342" lon="6.81034">
        <ele>645</ele>
        <time>2011-11-11T15:24:50Z</time>
      </trkpt>
      <trkpt lat="47.33351" lon="6.81053">
        <ele>643</ele>
        <time>2011-11-11T15:25:14Z</time>
      </trkpt>
      <trkpt lat="47.33348" lon="6.81082">
        <ele>638</ele>
        <time>2011-11-11T15:25:36Z</time>
      </trkpt>
      <trkpt lat="47.33351" lon="6.81121">
        <ele>635</ele>
        <time>2011-11-11T15:26:01Z</time>
      </trkpt>
      <trkpt lat="47.33362" lon="6.81154">
        <ele>634</ele>
        <time>2011-11-11T15:26:26Z</time>
      </trkpt>
      <trkpt lat="47.3337" lon="6.81189">
        <ele>630</ele>
        <time>2011-11-11T15:26:54Z</time>
      </trkpt>
      <trkpt lat="47.33379" lon="6.81235">
        <ele>630</ele>
        <time>2011-11-11T15:27:21Z</time>
      </trkpt>
      <trkpt lat="47.33393" lon="6.81277">
        <ele>627</ele>
        <time>2011-11-11T15:27:55Z</time>
      </trkpt>
      <trkpt lat="47.33394" lon="6.81293">
        <ele>625</ele>
        <time>2011-11-11T15:28:15Z</time>
      </trkpt>
      <trkpt lat="47.33401" lon="6.81342">
        <ele>625</ele>
        <time>2011-11-11T15:28:45Z</time>
      </trkpt>
      <trkpt lat="47.33402" lon="6.81394">
        <ele>621</ele>
        <time>2011-11-11T15:29:20Z</time>
      </trkpt>
      <trkpt lat="47.33404" lon="6.81427">
        <ele>622</ele>
        <time>2011-11-11T15:29:48Z</time>
      </trkpt>
      <trkpt lat="47.33407" lon="6.81486">
        <ele>621</ele>
        <time>2011-11-11T15:30:25Z</time>
      </trkpt>
      <trkpt lat="47.33412" lon="6.81525">
        <ele>619</ele>
        <time>2011-11-11T15:30:49Z</time>
      </trkpt>
      <trkpt lat="47.33405" lon="6.81566">
        <ele>620</ele>
        <time>2011-11-11T15:31:23Z</time>
      </trkpt>
      <trkpt lat="47.33427" lon="6.81601">
        <ele>630</ele>
        <time>2011-11-11T15:31:54Z</time>
      </trkpt>
      <trkpt lat="47.33474" lon="6.81622">
        <ele>634</ele>
        <time>2011-11-11T15:32:31Z</time>
      </trkpt>
      <trkpt lat="47.33511" lon="6.81644">
        <ele>642</ele>
        <time>2011-11-11T15:33:10Z</time>
      </trkpt>
      <trkpt lat="47.33531" lon="6.81643">
        <ele>643</ele>
        <time>2011-11-11T15:33:39Z</time>
      </trkpt>
      <trkpt lat="47.33548" lon="6.81655">
        <ele>644</ele>
        <time>2011-11-11T15:33:56Z</time>
      </trkpt>
      <trkpt lat="47.33559" lon="6.81663">
        <ele>644</ele>
        <time>2011-11-11T15:34:08Z</time>
      </trkpt>
      <trkpt lat="47.3357" lon="6.81672">
        <ele>643</ele>
        <time>2011-11-11T15:34:21Z</time>
      </trkpt>
      <trkpt lat="47.33589" lon="6.81688">
        <ele>647</ele>
        <time>2011-11-11T15:34:45Z</time>
      </trkpt>
      <trkpt lat="47.33591" lon="6.81702">
        <ele>647</ele>
        <time>2011-11-11T15:35:07Z</time>
      </trkpt>
      <trkpt lat="47.33574" lon="6.81702">
        <ele>642</ele>
        <time>2011-11-11T15:35:27Z</time>
      </trkpt>
      <trkpt lat="47.33568" lon="6.81706">
        <ele>641</ele>
        <time>2011-11-11T15:35:33Z</time>
      </trkpt>
      <trkpt lat="47.33551" lon="6.81711">
        <ele>640</ele>
        <time>2011-11-11T15:35:48Z</time>
      </trkpt>
      <trkpt lat="47.33529" lon="6.81722">
        <ele>638</ele>
        <time>2011-11-11T15:36:09Z</time>
      </trkpt>
      <trkpt lat="47.33509" lon="6.8175">
        <ele>634</ele>
        <time>2011-11-11T15:36:34Z</time>
      </trkpt>
      <trkpt lat="47.3349" lon="6.81768">
        <ele>631</ele>
        <time>2011-11-11T15:36:57Z</time>
      </trkpt>
      <trkpt lat="47.3348" lon="6.81785">
        <ele>631</ele>
        <time>2011-11-11T15:37:14Z</time>
      </trkpt>
      <trkpt lat="47.33471" lon="6.81796">
        <ele>631</ele>
        <time>2011-11-11T15:37:29Z</time>
      </trkpt>
      <trkpt lat="47.33447" lon="6.81795">
        <ele>630</ele>
        <time>2011-11-11T15:37:48Z</time>
      </trkpt>
      <trkpt lat="47.33418" lon="6.81784">
        <ele>626</ele>
        <time>2011-11-11T15:38:11Z</time>
      </trkpt>
      <trkpt lat="47.3339" lon="6.81786">
        <ele>619</ele>
        <time>2011-11-11T15:38:38Z</time>
      </trkpt>
      <trkpt lat="47.33364" lon="6.81786">
        <ele>617</ele>
        <time>2011-11-11T15:38:59Z</time>
      </trkpt>
      <trkpt lat="47.3333" lon="6.81774">
        <ele>609</ele>
        <time>2011-11-11T15:39:27Z</time>
      </trkpt>
      <trkpt lat="47.33298" lon="6.81761">
        <ele>608</ele>
        <time>2011-11-11T15:39:52Z</time>
      </trkpt>
      <trkpt lat="47.33271" lon="6.81763">
        <ele>606</ele>
        <time>2011-11-11T15:40:17Z</time>
      </trkpt>
      <trkpt lat="47.33247" lon="6.81758">
        <ele>600</ele>
        <time>2011-11-11T15:40:37Z</time>
      </trkpt>
      <trkpt lat="47.33214" lon="6.81751">
        <ele>606</ele>
        <time>2011-11-11T15:41:01Z</time>
      </trkpt>
      <trkpt lat="47.33186" lon="6.81743">
        <ele>590</ele>
        <time>2011-11-11T15:41:23Z</time>
      </trkpt>
      <trkpt lat="47.33167" lon="6.81731">
        <ele>589</ele>
        <time>2011-11-11T15:41:44Z</time>
      </trkpt>
      <trkpt lat="47.33153" lon="6.81731">
        <ele>585</ele>
        <time>2011-11-11T15:42:17Z</time>
      </trkpt>
      <trkpt lat="47.33156" lon="6.81725">
        <ele>584</ele>
        <time>2011-11-11T15:42:59Z</time>
      </trkpt>
      <trkpt lat="47.33129" lon="6.81709">
        <ele>577</ele>
        <time>2011-11-11T15:43:25Z</time>
      </trkpt>
      <trkpt lat="47.33094" lon="6.81685">
        <ele>569</ele>
        <time>2011-11-11T15:43:59Z</time>
      </trkpt>
      <trkpt lat="47.33081" lon="6.81709">
        <ele>571</ele>
        <time>2011-11-11T15:44:24Z</time>
      </trkpt>
      <trkpt lat="47.33064" lon="6.81733">
        <ele>575</ele>
        <time>2011-11-11T15:44:44Z</time>
      </trkpt>
      <trkpt lat="47.33039" lon="6.81758">
        <ele>584</ele>
        <time>2011-11-11T15:45:17Z</time>
      </trkpt>
      <trkpt lat="47.33024" lon="6.81732">
        <ele>571</ele>
        <time>2011-11-11T15:45:34Z</time>
      </trkpt>
      <trkpt lat="47.33025" lon="6.817">
        <ele>568</ele>
        <time>2011-11-11T15:46:00Z</time>
      </trkpt>
      <trkpt lat="47.33026" lon="6.81683">
        <ele>566</ele>
        <time>2011-11-11T15:46:19Z</time>
      </trkpt>
      <trkpt lat="47.33025" lon="6.81672">
        <ele>565</ele>
        <time>2011-11-11T15:46:34Z</time>
      </trkpt>
      <trkpt lat="47.33023" lon="6.81649">
        <ele>552</ele>
        <time>2011-11-11T15:46:51Z</time>
      </trkpt>
      <trkpt lat="47.33033" lon="6.81637">
        <ele>549</ele>
        <time>2011-11-11T15:47:08Z</time>
      </trkpt>
      <trkpt lat="47.33046" lon="6.81647">
        <ele>551</ele>
        <time>2011-11-11T15:47:23Z</time>
      </trkpt>
      <trkpt lat="47.33059" lon="6.81638">
        <ele>550</ele>
        <time>2011-11-11T15:47:35Z</time>
      </trkpt>
      <trkpt lat="47.33068" lon="6.81615">
        <ele>546</ele>
        <time>2011-11-11T15:47:54Z</time>
      </trkpt>
      <trkpt lat="47.33082" lon="6.81603">
        <ele>543</ele>
        <time>2011-11-11T15:48:09Z</time>
      </trkpt>
      <trkpt lat="47.33103" lon="6.81589">
        <ele>543</ele>
        <time>2011-11-11T15:48:30Z</time>
      </trkpt>
      <trkpt lat="47.33129" lon="6.81578">
        <ele>534</ele>
        <time>2011-11-11T15:48:51Z</time>
      </trkpt>
      <trkpt lat="47.33135" lon="6.81572">
        <ele>534</ele>
        <time>2011-11-11T15:49:06Z</time>
      </trkpt>
      <trkpt lat="47.33139" lon="6.81556">
        <ele>533</ele>
        <time>2011-11-11T15:49:16Z</time>
      </trkpt>
      <trkpt lat="47.33126" lon="6.81549">
        <ele>531</ele>
        <time>2011-11-11T15:49:31Z</time>
      </trkpt>
      <trkpt lat="47.3311" lon="6.81546">
        <ele>530</ele>
        <time>2011-11-11T15:49:49Z</time>
      </trkpt>
      <trkpt lat="47.33092" lon="6.81538">
        <ele>529</ele>
        <time>2011-11-11T15:50:06Z</time>
      </trkpt>
      <trkpt lat="47.3309" lon="6.81537">
        <ele>528</ele>
        <time>2011-11-11T15:50:08Z</time>
      </trkpt>
      <trkpt lat="47.33065" lon="6.81535">
        <ele>523</ele>
        <time>2011-11-11T15:50:29Z</time>
      </trkpt>
      <trkpt lat="47.3304" lon="6.81536">
        <ele>522</ele>
        <time>2011-11-11T15:50:48Z</time>
      </trkpt>
      <trkpt lat="47.3302" lon="6.81529">
        <ele>520</ele>
        <time>2011-11-11T15:51:05Z</time>
      </trkpt>
      <trkpt lat="47.33003" lon="6.81519">
        <ele>515</ele>
        <time>2011-11-11T15:51:21Z</time>
      </trkpt>
      <trkpt lat="47.32985" lon="6.81514">
        <ele>506</ele>
        <time>2011-11-11T15:51:38Z</time>
      </trkpt>
      <trkpt lat="47.32966" lon="6.81515">
        <ele>505</ele>
        <time>2011-11-11T15:51:56Z</time>
      </trkpt>
      <trkpt lat="47.32949" lon="6.81522">
        <ele>503</ele>
        <time>2011-11-11T15:52:10Z</time>
      </trkpt>
      <trkpt lat="47.32934" lon="6.81524">
        <ele>501</ele>
        <time>2011-11-11T15:52:24Z</time>
      </trkpt>
      <trkpt lat="47.32919" lon="6.81535">
        <ele>502</ele>
        <time>2011-11-11T15:52:39Z</time>
      </trkpt>
      <trkpt lat="47.329" lon="6.81551">
        <ele>493</ele>
        <time>2011-11-11T15:52:56Z</time>
      </trkpt>
      <trkpt lat="47.32883" lon="6.81545">
        <ele>491</ele>
        <time>2011-11-11T15:53:12Z</time>
      </trkpt>
      <trkpt lat="47.32862" lon="6.81525">
        <ele>487</ele>
        <time>2011-11-11T15:53:32Z</time>
      </trkpt>
      <trkpt lat="47.32847" lon="6.81502">
        <ele>482</ele>
        <time>2011-11-11T15:53:51Z</time>
      </trkpt>
      <trkpt lat="47.32831" lon="6.8149">
        <ele>473</ele>
        <time>2011-11-11T15:54:07Z</time>
      </trkpt>
      <trkpt lat="47.328" lon="6.81485">
        <ele>469</ele>
        <time>2011-11-11T15:54:29Z</time>
      </trkpt>
      <trkpt lat="47.32779" lon="6.81497">
        <ele>470</ele>
        <time>2011-11-11T15:54:51Z</time>
      </trkpt>
      <trkpt lat="47.32755" lon="6.81508">
        <ele>479</ele>
        <time>2011-11-11T15:55:14Z</time>
      </trkpt>
      <trkpt lat="47.32735" lon="6.81515">
        <ele>474</ele>
        <time>2011-11-11T15:55:33Z</time>
      </trkpt>
      <trkpt lat="47.32715" lon="6.81523">
        <ele>472</ele>
        <time>2011-11-11T15:55:51Z</time>
      </trkpt>
      <trkpt lat="47.32707" lon="6.81538">
        <ele>472</ele>
        <time>2011-11-11T15:56:10Z</time>
      </trkpt>
      <trkpt lat="47.32698" lon="6.81548">
        <ele>471</ele>
        <time>2011-11-11T15:56:27Z</time>
      </trkpt>
      <trkpt lat="47.32697" lon="6.81552">
        <ele>471</ele>
        <time>2011-11-11T15:56:52Z</time>
      </trkpt>
      <trkpt lat="47.32693" lon="6.81565">
        <ele>472</ele>
        <time>2011-11-11T15:57:22Z</time>
      </trkpt>
      <trkpt lat="47.3269" lon="6.81567">
        <ele>471</ele>
        <time>2011-11-11T15:57:43Z</time>
      </trkpt>
      <trkpt lat="47.32705" lon="6.81549">
        <ele>472</ele>
        <time>2011-11-11T15:58:13Z</time>
      </trkpt>
      <trkpt lat="47.32711" lon="6.81603">
        <ele>478</ele>
        <time>2011-11-11T15:58:40Z</time>
      </trkpt>
      <trkpt lat="47.32708" lon="6.81566">
        <ele>473</ele>
        <time>2011-11-11T15:59:06Z</time>
      </trkpt>
      <trkpt lat="47.32695" lon="6.81569">
        <ele>472</ele>
        <time>2011-11-11T15:59:41Z</time>
      </trkpt>
      <trkpt lat="47.32684" lon="6.81584">
        <ele>474</ele>
        <time>2011-11-11T16:00:23Z</time>
      </trkpt>
      <trkpt lat="47.32688" lon="6.81592">
        <ele>475</ele>
        <time>2011-11-11T16:00:29Z</time>
      </trkpt>
      <trkpt lat="47.32695" lon="6.81589">
        <ele>476</ele>
        <time>2011-11-11T16:00:47Z</time>
      </trkpt>
      <trkpt lat="47.32697" lon="6.81569">
        <ele>472</ele>
        <time>2011-11-11T16:01:05Z</time>
      </trkpt>
      <trkpt lat="47.32689" lon="6.81578">
        <ele>471</ele>
        <time>2011-11-11T16:01:31Z</time>
      </trkpt>
      <trkpt lat="47.32691" lon="6.81559">
        <ele>471</ele>
        <time>2011-11-11T16:02:03Z</time>
      </trkpt>
      <trkpt lat="47.32706" lon="6.81562">
        <ele>473</ele>
        <time>2011-11-11T16:02:20Z</time>
      </trkpt>
      <trkpt lat="47.32704" lon="6.81537">
        <ele>471</ele>
        <time>2011-11-11T16:02:53Z</time>
      </trkpt>
      <trkpt lat="47.32705" lon="6.81525">
        <ele>470</ele>
        <time>2011-11-11T16:03:05Z</time>
      </trkpt>
      <trkpt lat="47.32692" lon="6.81534">
        <ele>470</ele>
        <time>2011-11-11T16:03:25Z</time>
      </trkpt>
      <trkpt lat="47.32685" lon="6.81548">
        <ele>470</ele>
        <time>2011-11-11T16:03:38Z</time>
      </trkpt>
      <trkpt lat="47.32673" lon="6.81565">
        <ele>470</ele>
        <time>2011-11-11T16:03:54Z</time>
      </trkpt>
      <trkpt lat="47.32666" lon="6.81566">
        <ele>461</ele>
        <time>2011-11-11T16:04:07Z</time>
      </trkpt>
      <trkpt lat="47.32673" lon="6.81554">
        <ele>470</ele>
        <time>2011-11-11T16:04:19Z</time>
      </trkpt>
      <trkpt lat="47.3268" lon="6.81538">
        <ele>469</ele>
        <time>2011-11-11T16:04:36Z</time>
      </trkpt>
      <trkpt lat="47.32685" lon="6.81517">
        <ele>466</ele>
        <time>2011-11-11T16:04:53Z</time>
      </trkpt>
      <trkpt lat="47.32687" lon="6.81514">
        <ele>466</ele>
        <time>2011-11-11T16:05:09Z</time>
      </trkpt>
      <trkpt lat="47.32674" lon="6.81529">
        <ele>467</ele>
        <time>2011-11-11T16:05:30Z</time>
      </trkpt>
      <trkpt lat="47.32662" lon="6.81547">
        <ele>456</ele>
        <time>2011-11-11T16:05:46Z</time>
      </trkpt>
      <trkpt lat="47.32656" lon="6.8156">
        <ele>458</ele>
        <time>2011-11-11T16:05:59Z</time>
      </trkpt>
      <trkpt lat="47.32654" lon="6.81551">
        <ele>456</ele>
        <time>2011-11-11T16:06:18Z</time>
      </trkpt>
      <trkpt lat="47.32657" lon="6.81526">
        <ele>454</ele>
        <time>2011-11-11T16:06:34Z</time>
      </trkpt>
      <trkpt lat="47.32662" lon="6.81501">
        <ele>455</ele>
        <time>2011-11-11T16:06:53Z</time>
      </trkpt>
      <trkpt lat="47.32666" lon="6.81477">
        <ele>446</ele>
        <time>2011-11-11T16:07:13Z</time>
      </trkpt>
      <trkpt lat="47.32673" lon="6.81459">
        <ele>453</ele>
        <time>2011-11-11T16:07:31Z</time>
      </trkpt>
      <trkpt lat="47.32674" lon="6.81451">
        <ele>451</ele>
        <time>2011-11-11T16:07:34Z</time>
      </trkpt>
      <trkpt lat="47.32665" lon="6.81447">
        <ele>440</ele>
        <time>2011-11-11T16:07:45Z</time>
      </trkpt>
      <trkpt lat="47.32652" lon="6.81455">
        <ele>441</ele>
        <time>2011-11-11T16:07:58Z</time>
      </trkpt>
      <trkpt lat="47.3264" lon="6.81472">
        <ele>441</ele>
        <time>2011-11-11T16:08:15Z</time>
      </trkpt>
      <trkpt lat="47.32631" lon="6.8149">
        <ele>442</ele>
        <time>2011-11-11T16:08:34Z</time>
      </trkpt>
      <trkpt lat="47.32614" lon="6.81501">
        <ele>447</ele>
        <time>2011-11-11T16:08:51Z</time>
      </trkpt>
      <trkpt lat="47.32603" lon="6.815">
        <ele>438</ele>
        <time>2011-11-11T16:09:09Z</time>
      </trkpt>
      <trkpt lat="47.32601" lon="6.81507">
        <ele>444</ele>
        <time>2011-11-11T16:09:21Z</time>
      </trkpt>
      <trkpt lat="47.32598" lon="6.81509">
        <ele>443</ele>
        <time>2011-11-11T16:09:24Z</time>
      </trkpt>
      <trkpt lat="47.32595" lon="6.81511">
        <ele>443</ele>
        <time>2011-11-11T16:09:28Z</time>
      </trkpt>
      <trkpt lat="47.32576" lon="6.81517">
        <ele>437</ele>
        <time>2011-11-11T16:09:47Z</time>
      </trkpt>
      <trkpt lat="47.32552" lon="6.81516">
        <ele>437</ele>
        <time>2011-11-11T16:10:07Z</time>
      </trkpt>
      <trkpt lat="47.32535" lon="6.81507">
        <ele>435</ele>
        <time>2011-11-11T16:10:22Z</time>
      </trkpt>
      <trkpt lat="47.32519" lon="6.81496">
        <ele>427</ele>
        <time>2011-11-11T16:10:37Z</time>
      </trkpt>
      <trkpt lat="47.32493" lon="6.8148">
        <ele>423</ele>
        <time>2011-11-11T16:10:58Z</time>
      </trkpt>
      <trkpt lat="47.32482" lon="6.81462">
        <ele>420</ele>
        <time>2011-11-11T16:11:10Z</time>
      </trkpt>
      <trkpt lat="47.3247" lon="6.81451">
        <ele>418</ele>
        <time>2011-11-11T16:11:22Z</time>
      </trkpt>
      <trkpt lat="47.32453" lon="6.81438">
        <ele>417</ele>
        <time>2011-11-11T16:11:36Z</time>
      </trkpt>
      <trkpt lat="47.32435" lon="6.81429">
        <ele>414</ele>
        <time>2011-11-11T16:11:51Z</time>
      </trkpt>
      <trkpt lat="47.3242" lon="6.81424">
        <ele>410</ele>
        <time>2011-11-11T16:12:04Z</time>
      </trkpt>
      <trkpt lat="47.32408" lon="6.81425">
        <ele>410</ele>
        <time>2011-11-11T16:12:17Z</time>
      </trkpt>
      <trkpt lat="47.32401" lon="6.81422">
        <ele>410</ele>
        <time>2011-11-11T16:12:23Z</time>
      </trkpt>
      <trkpt lat="47.32386" lon="6.81411">
        <ele>401</ele>
        <time>2011-11-11T16:12:35Z</time>
      </trkpt>
      <trkpt lat="47.32369" lon="6.81403">
        <ele>399</ele>
        <time>2011-11-11T16:12:48Z</time>
      </trkpt>
      <trkpt lat="47.32362" lon="6.81401">
        <ele>399</ele>
        <time>2011-11-11T16:12:54Z</time>
      </trkpt>
      <trkpt lat="47.3234" lon="6.81397">
        <ele>399</ele>
        <time>2011-11-11T16:13:12Z</time>
      </trkpt>
      <trkpt lat="47.32325" lon="6.81392">
        <ele>395</ele>
        <time>2011-11-11T16:13:26Z</time>
      </trkpt>
      <trkpt lat="47.32324" lon="6.81391">
        <ele>395</ele>
        <time>2011-11-11T16:13:27Z</time>
      </trkpt>
      <trkpt lat="47.32306" lon="6.81386">
        <ele>393</ele>
        <time>2011-11-11T16:13:41Z</time>
      </trkpt>
      <trkpt lat="47.32287" lon="6.8138">
        <ele>392</ele>
        <time>2011-11-11T16:13:54Z</time>
      </trkpt>
      <trkpt lat="47.32268" lon="6.81386">
        <ele>392</ele>
        <time>2011-11-11T16:14:10Z</time>
      </trkpt>
      <trkpt lat="47.32268" lon="6.81385">
        <ele>392</ele>
        <time>2011-11-11T16:14:11Z</time>
      </trkpt>
      <trkpt lat="47.32252" lon="6.81391">
        <ele>392</ele>
        <time>2011-11-11T16:14:27Z</time>
      </trkpt>
      <trkpt lat="47.32227" lon="6.8142">
        <ele>394</ele>
        <time>2011-11-11T16:14:51Z</time>
      </trkpt>
      <trkpt lat="47.3221" lon="6.81435">
        <ele>393</ele>
        <time>2011-11-11T16:15:09Z</time>
      </trkpt>
      <trkpt lat="47.32193" lon="6.81468">
        <ele>394</ele>
        <time>2011-11-11T16:15:31Z</time>
      </trkpt>
      <trkpt lat="47.32173" lon="6.81489">
        <ele>393</ele>
        <time>2011-11-11T16:15:50Z</time>
      </trkpt>
      <trkpt lat="47.32164" lon="6.81503">
        <ele>391</ele>
        <time>2011-11-11T16:16:00Z</time>
      </trkpt>
      <trkpt lat="47.32148" lon="6.81526">
        <ele>392</ele>
        <time>2011-11-11T16:16:15Z</time>
      </trkpt>
      <trkpt lat="47.32136" lon="6.81538">
        <ele>392</ele>
        <time>2011-11-11T16:16:27Z</time>
      </trkpt>
      <trkpt lat="47.32114" lon="6.81553">
        <ele>390</ele>
        <time>2011-11-11T16:16:45Z</time>
      </trkpt>
      <trkpt lat="47.32113" lon="6.81555">
        <ele>390</ele>
        <time>2011-11-11T16:16:46Z</time>
      </trkpt>
      <trkpt lat="47.32103" lon="6.81556">
        <ele>389</ele>
        <time>2011-11-11T16:16:53Z</time>
      </trkpt>
      <trkpt lat="47.321" lon="6.81556">
        <ele>389</ele>
        <time>2011-11-11T16:16:55Z</time>
      </trkpt>
      <trkpt lat="47.3208" lon="6.8155">
        <ele>383</ele>
        <time>2011-11-11T16:17:11Z</time>
      </trkpt>
      <trkpt lat="47.32079" lon="6.8155">
        <ele>383</ele>
        <time>2011-11-11T16:17:12Z</time>
      </trkpt>
      <trkpt lat="47.32078" lon="6.81548">
        <ele>383</ele>
        <time>2011-11-11T16:17:14Z</time>
      </trkpt>
      <trkpt lat="47.32067" lon="6.81533">
        <ele>382</ele>
        <time>2011-11-11T16:17:31Z</time>
      </trkpt>
      <trkpt lat="47.32059" lon="6.81518">
        <ele>382</ele>
        <time>2011-11-11T16:17:44Z</time>
      </trkpt>
      <trkpt lat="47.32054" lon="6.81517">
        <ele>382</ele>
        <time>2011-11-11T16:17:48Z</time>
      </trkpt>
      <trkpt lat="47.32047" lon="6.81521">
        <ele>382</ele>
        <time>2011-11-11T16:17:54Z</time>
      </trkpt>
      <trkpt lat="47.32027" lon="6.81499">
        <ele>380</ele>
        <time>2011-11-11T16:18:11Z</time>
      </trkpt>
      <trkpt lat="47.32013" lon="6.81483">
        <ele>380</ele>
        <time>2011-11-11T16:18:25Z</time>
      </trkpt>
      <trkpt lat="47.32007" lon="6.81469">
        <ele>380</ele>
        <time>2011-11-11T16:18:36Z</time>
      </trkpt>
      <trkpt lat="47.31993" lon="6.81442">
        <ele>378</ele>
        <time>2011-11-11T16:18:55Z</time>
      </trkpt>
      <trkpt lat="47.31973" lon="6.8141">
        <ele>377</ele>
        <time>2011-11-11T16:19:20Z</time>
      </trkpt>
      <trkpt lat="47.31956" lon="6.81379">
        <ele>376</ele>
        <time>2011-11-11T16:19:40Z</time>
      </trkpt>
      <trkpt lat="47.31937" lon="6.81338">
        <ele>375</ele>
        <time>2011-11-11T16:20:08Z</time>
      </trkpt>
      <trkpt lat="47.31935" lon="6.81335">
        <ele>375</ele>
        <time>2011-11-11T16:20:13Z</time>
      </trkpt>
      <trkpt lat="47.31903" lon="6.8132">
        <ele>375</ele>
        <time>2011-11-11T16:20:37Z</time>
      </trkpt>
      <trkpt lat="47.319" lon="6.81313">
        <ele>375</ele>
        <time>2011-11-11T16:20:41Z</time>
      </trkpt>
      <trkpt lat="47.31884" lon="6.81294">
        <ele>376</ele>
        <time>2011-11-11T16:20:56Z</time>
      </trkpt>
      <trkpt lat="47.31863" lon="6.81298">
        <ele>376</ele>
        <time>2011-11-11T16:21:21Z</time>
      </trkpt>
      <trkpt lat="47.31852" lon="6.81292">
        <ele>376</ele>
        <time>2011-11-11T16:21:41Z</time>
      </trkpt>
      <trkpt lat="47.31847" lon="6.81259">
        <ele>376</ele>
        <time>2011-11-11T16:22:02Z</time>
      </trkpt>
      <trkpt lat="47.31852" lon="6.81229">
        <ele>375</ele>
        <time>2011-11-11T16:22:25Z</time>
      </trkpt>
      <trkpt lat="47.31843" lon="6.81224">
        <ele>375</ele>
        <time>2011-11-11T16:23:02Z</time>
      </trkpt>
      <trkpt lat="47.31857" lon="6.81217">
        <ele>375</ele>
        <time>2011-11-11T16:23:19Z</time>
      </trkpt>
      <trkpt lat="47.31859" lon="6.8121">
        <ele>375</ele>
        <time>2011-11-11T16:23:23Z</time>
      </trkpt>
      <trkpt lat="47.31848" lon="6.81166">
        <ele>375</ele>
        <time>2011-11-11T16:23:50Z</time>
      </trkpt>
      <trkpt lat="47.31843" lon="6.81158">
        <ele>375</ele>
        <time>2011-11-11T16:24:15Z</time>
      </trkpt>
      <trkpt lat="47.31841" lon="6.81177">
        <ele>375</ele>
        <time>2011-11-11T16:24:42Z</time>
      </trkpt>
      <trkpt lat="47.31833" lon="6.81148">
        <ele>376</ele>
        <time>2011-11-11T16:25:09Z</time>
      </trkpt>
      <trkpt lat="47.31821" lon="6.8114">
        <ele>376</ele>
        <time>2011-11-11T16:25:14Z</time>
      </trkpt>
      <trkpt lat="47.318" lon="6.81115">
        <ele>376</ele>
        <time>2011-11-11T16:25:35Z</time>
      </trkpt>
      <trkpt lat="47.31788" lon="6.81108">
        <ele>376</ele>
        <time>2011-11-11T16:25:45Z</time>
      </trkpt>
      <trkpt lat="47.31783" lon="6.8111">
        <ele>376</ele>
        <time>2011-11-11T16:25:51Z</time>
      </trkpt>
      <trkpt lat="47.31778" lon="6.81106">
        <ele>376</ele>
        <time>2011-11-11T16:25:56Z</time>
      </trkpt>
      <trkpt lat="47.31764" lon="6.81123">
        <ele>377</ele>
        <time>2011-11-11T16:26:10Z</time>
      </trkpt>
      <trkpt lat="47.31747" lon="6.81104">
        <ele>376</ele>
        <time>2011-11-11T16:26:29Z</time>
      </trkpt>
      <trkpt lat="47.3174" lon="6.81097">
        <ele>376</ele>
        <time>2011-11-11T16:26:57Z</time>
      </trkpt>
      <trkpt lat="47.31744" lon="6.81115">
        <ele>377</ele>
        <time>2011-11-11T16:27:34Z</time>
      </trkpt>
      <trkpt lat="47.31756" lon="6.81105">
        <ele>376</ele>
        <time>2011-11-11T16:28:10Z</time>
      </trkpt>
      <trkpt lat="47.31762" lon="6.81093">
        <ele>375</ele>
        <time>2011-11-11T16:28:20Z</time>
      </trkpt>
      <trkpt lat="47.31772" lon="6.81099">
        <ele>376</ele>
        <time>2011-11-11T16:28:27Z</time>
      </trkpt>
      <trkpt lat="47.31799" lon="6.81113">
        <ele>376</ele>
        <time>2011-11-11T16:28:46Z</time>
      </trkpt>
      <trkpt lat="47.31837" lon="6.81123">
        <ele>374</ele>
        <time>2011-11-11T16:29:06Z</time>
      </trkpt>
      <trkpt lat="47.31834" lon="6.81141">
        <ele>375</ele>
        <time>2011-11-11T16:29:09Z</time>
      </trkpt>
      <trkpt lat="47.31831" lon="6.81166">
        <ele>376</ele>
        <time>2011-11-11T16:29:16Z</time>
      </trkpt>
      <trkpt lat="47.31808" lon="6.81177">
        <ele>379</ele>
        <time>2011-11-11T16:29:33Z</time>
      </trkpt>
      <trkpt lat="47.31783" lon="6.81167">
        <ele>380</ele>
        <time>2011-11-11T16:29:56Z</time>
      </trkpt>
      <trkpt lat="47.31761" lon="6.8116">
        <ele>379</ele>
        <time>2011-11-11T16:30:15Z</time>
      </trkpt>
      <trkpt lat="47.3175" lon="6.81157">
        <ele>379</ele>
        <time>2011-11-11T16:30:24Z</time>
      </trkpt>
      <trkpt lat="47.31719" lon="6.81147">
        <ele>378</ele>
        <time>2011-11-11T16:30:50Z</time>
      </trkpt>
      <trkpt lat="47.31721" lon="6.81123">
        <ele>377</ele>
        <time>2011-11-11T16:30:59Z</time>
      </trkpt>
      <trkpt lat="47.31726" lon="6.81064">
        <ele>380</ele>
        <time>2011-11-11T16:31:24Z</time>
      </trkpt>
      <trkpt lat="47.31733" lon="6.81056">
        <ele>381</ele>
        <time>2011-11-11T16:31:48Z</time>
      </trkpt>
      <trkpt lat="47.31751" lon="6.81048">
        <ele>384</ele>
        <time>2011-11-11T16:32:02Z</time>
      </trkpt>
      <trkpt lat="47.31781" lon="6.81047">
        <ele>384</ele>
        <time>2011-11-11T16:32:21Z</time>
      </trkpt>
      <trkpt lat="47.31804" lon="6.8105">
        <ele>384</ele>
        <time>2011-11-11T16:32:41Z</time>
      </trkpt>
      <trkpt lat="47.31824" lon="6.81061">
        <ele>382</ele>
        <time>2011-11-11T16:32:56Z</time>
      </trkpt>
      <trkpt lat="47.31832" lon="6.81081">
        <ele>375</ele>
        <time>2011-11-11T16:33:16Z</time>
      </trkpt>
      <trkpt lat="47.31834" lon="6.8108">
        <ele>376</ele>
        <time>2011-11-11T16:33:40Z</time>
      </trkpt>
      <trkpt lat="47.31809" lon="6.81064">
        <ele>382</ele>
        <time>2011-11-11T16:34:05Z</time>
      </trkpt>
      <trkpt lat="47.31806" lon="6.81068">
        <ele>382</ele>
        <time>2011-11-11T16:34:21Z</time>
      </trkpt>
      <trkpt lat="47.31804" lon="6.81074">
        <ele>381</ele>
        <time>2011-11-11T16:34:38Z</time>
      </trkpt>
      <trkpt lat="47.31801" lon="6.8108">
        <ele>381</ele>
        <time>2011-11-11T16:35:10Z</time>
      </trkpt>
      <trkpt lat="47.31804" lon="6.81085">
        <ele>375</ele>
        <time>2011-11-11T16:35:24Z</time>
      </trkpt>
      <trkpt lat="47.31802" lon="6.8109">
        <ele>375</ele>
        <time>2011-11-11T16:35:43Z</time>
      </trkpt>
      <trkpt lat="47.31802" lon="6.8109">
        <ele>375</ele>
        <time>2011-11-11T16:36:39Z</time>
      </trkpt>
      <trkpt lat="47.31799" lon="6.81093">
        <ele>375</ele>
        <time>2011-11-11T16:37:30Z</time>
      </trkpt>
      <trkpt lat="47.31797" lon="6.81084">
        <ele>375</ele>
        <time>2011-11-11T16:38:07Z</time>
      </trkpt>
      <trkpt lat="47.31801" lon="6.81071">
        <ele>382</ele>
        <time>2011-11-11T16:38:29Z</time>
      </trkpt>
      <trkpt lat="47.31805" lon="6.81072">
        <ele>382</ele>
        <time>2011-11-11T16:38:54Z</time>
      </trkpt>
      <trkpt lat="47.31805" lon="6.81072">
        <ele>382</ele>
        <time>2011-11-11T16:38:55Z</time>
      </trkpt>
      <trkpt lat="47.31805" lon="6.81072">
        <ele>381</ele>
        <time>2011-11-11T16:38:57Z</time>
      </trkpt>
      <trkpt lat="47.31803" lon="6.81071">
        <ele>382</ele>
        <time>2011-11-11T16:39:04Z</time>
      </trkpt>
      <trkpt lat="47.31799" lon="6.81069">
        <ele>382</ele>
        <time>2011-11-11T16:39:07Z</time>
      </trkpt>
      <trkpt lat="47.3179" lon="6.81067">
        <ele>382</ele>
        <time>2011-11-11T16:39:13Z</time>
      </trkpt>
      <trkpt lat="47.31788" lon="6.81064">
        <ele>383</ele>
        <time>2011-11-11T16:39:15Z</time>
      </trkpt>
      <trkpt lat="47.31782" lon="6.81069">
        <ele>382</ele>
        <time>2011-11-11T16:39:19Z</time>
      </trkpt>
      <trkpt lat="47.31775" lon="6.81069">
        <ele>381</ele>
        <time>2011-11-11T16:39:24Z</time>
      </trkpt>
      <trkpt lat="47.31773" lon="6.81069">
        <ele>381</ele>
        <time>2011-11-11T16:39:25Z</time>
      </trkpt>
      <trkpt lat="47.31767" lon="6.81067">
        <ele>381</ele>
        <time>2011-11-11T16:39:30Z</time>
      </trkpt>
      <trkpt lat="47.31761" lon="6.81068">
        <ele>380</ele>
        <time>2011-11-11T16:39:35Z</time>
      </trkpt>
      <trkpt lat="47.31755" lon="6.81068">
        <ele>379</ele>
        <time>2011-11-11T16:39:41Z</time>
      </trkpt>
      <trkpt lat="47.3175" lon="6.81069">
        <ele>379</ele>
        <time>2011-11-11T16:39:46Z</time>
      </trkpt>
      <trkpt lat="47.31749" lon="6.81069">
        <ele>378</ele>
        <time>2011-11-11T16:39:47Z</time>
      </trkpt>
      <trkpt lat="47.31749" lon="6.81068">
        <ele>378</ele>
        <time>2011-11-11T16:39:48Z</time>
      </trkpt>
      <trkpt lat="47.31748" lon="6.81068">
        <ele>378</ele>
        <time>2011-11-11T16:39:49Z</time>
      </trkpt>
      <trkpt lat="47.31741" lon="6.81071">
        <ele>378</ele>
        <time>2011-11-11T16:39:52Z</time>
      </trkpt>
      <trkpt lat="47.31734" lon="6.81073">
        <ele>379</ele>
        <time>2011-11-11T16:39:57Z</time>
      </trkpt>
      <trkpt lat="47.31732" lon="6.81073">
        <ele>379</ele>
        <time>2011-11-11T16:39:59Z</time>
      </trkpt>
      <trkpt lat="47.31728" lon="6.81074">
        <ele>379</ele>
        <time>2011-11-11T16:40:03Z</time>
      </trkpt>
      <trkpt lat="47.31724" lon="6.8108">
        <ele>379</ele>
        <time>2011-11-11T16:40:07Z</time>
      </trkpt>
      <trkpt lat="47.31723" lon="6.81092">
        <ele>376</ele>
        <time>2011-11-11T16:40:14Z</time>
      </trkpt>
      <trkpt lat="47.31722" lon="6.81093">
        <ele>376</ele>
        <time>2011-11-11T16:40:15Z</time>
      </trkpt>
      <trkpt lat="47.31722" lon="6.81096">
        <ele>376</ele>
        <time>2011-11-11T16:40:17Z</time>
      </trkpt>
      <trkpt lat="47.31723" lon="6.81098">
        <ele>376</ele>
        <time>2011-11-11T16:40:20Z</time>
      </trkpt>
      <trkpt lat="47.31722" lon="6.81102">
        <ele>376</ele>
        <time>2011-11-11T16:40:22Z</time>
      </trkpt>
      <trkpt lat="47.31723" lon="6.81108">
        <ele>377</ele>
        <time>2011-11-11T16:40:29Z</time>
      </trkpt>
      <trkpt lat="47.31722" lon="6.81126">
        <ele>378</ele>
        <time>2011-11-11T16:40:44Z</time>
      </trkpt>
      <trkpt lat="47.31722" lon="6.81135">
        <ele>378</ele>
        <time>2011-11-11T16:40:47Z</time>
      </trkpt>
      <trkpt lat="47.31731" lon="6.8115">
        <ele>379</ele>
        <time>2011-11-11T16:40:55Z</time>
      </trkpt>
      <trkpt lat="47.31733" lon="6.81167">
        <ele>383</ele>
        <time>2011-11-11T16:41:02Z</time>
      </trkpt>
      <trkpt lat="47.31735" lon="6.81189">
        <ele>384</ele>
        <time>2011-11-11T16:41:15Z</time>
      </trkpt>
      <trkpt lat="47.31754" lon="6.81193">
        <ele>381</ele>
        <time>2011-11-11T16:41:29Z</time>
      </trkpt>
      <trkpt lat="47.31766" lon="6.81202">
        <ele>381</ele>
        <time>2011-11-11T16:41:42Z</time>
      </trkpt>
      <trkpt lat="47.31781" lon="6.81218">
        <ele>380</ele>
        <time>2011-11-11T16:41:56Z</time>
      </trkpt>
      <trkpt lat="47.318" lon="6.81221">
        <ele>380</ele>
        <time>2011-11-11T16:42:15Z</time>
      </trkpt>
      <trkpt lat="47.31814" lon="6.81227">
        <ele>379</ele>
        <time>2011-11-11T16:42:49Z</time>
      </trkpt>
      <trkpt lat="47.31813" lon="6.81227">
        <ele>379</ele>
        <time>2011-11-11T16:43:06Z</time>
      </trkpt>
      <trkpt lat="47.31813" lon="6.81228">
        <ele>379</ele>
        <time>2011-11-11T16:43:07Z</time>
      </trkpt>
      <trkpt lat="47.31814" lon="6.81228">
        <ele>379</ele>
        <time>2011-11-11T16:43:09Z</time>
      </trkpt>
      <trkpt lat="47.31813" lon="6.81228">
        <ele>379</ele>
        <time>2011-11-11T16:43:18Z</time>
      </trkpt>
      <trkpt lat="47.31813" lon="6.81228">
        <ele>379</ele>
        <time>2011-11-11T16:43:19Z</time>
      </trkpt>
      <trkpt lat="47.31813" lon="6.81228">
        <ele>379</ele>
        <time>2011-11-11T16:43:20Z</time>
      </trkpt>
      <trkpt lat="47.31813" lon="6.81227">
        <ele>379</ele>
        <time>2011-11-11T16:43:23Z</time>
      </trkpt>
      <trkpt lat="47.31808" lon="6.81213">
        <ele>379</ele>
        <time>2011-11-11T16:43:32Z</time>
      </trkpt>
      <trkpt lat="47.31808" lon="6.81212">
        <ele>379</ele>
        <time>2011-11-11T16:43:33Z</time>
      </trkpt>
      <trkpt lat="47.31807" lon="6.8121">
        <ele>379</ele>
        <time>2011-11-11T16:43:36Z</time>
      </trkpt>
      <trkpt lat="47.31806" lon="6.81206">
        <ele>379</ele>
        <time>2011-11-11T16:43:39Z</time>
      </trkpt>
    </trkseg>
  </trk>
</gpx>